Observation data for Persimmon Gap on 03/12/2018      Previous  Date  Next       Current Mesonet Observations  Soil Data  Daily Summary Page  Observations in Plain Language
KPG1 120500Z 06014KT 13/M07 A3028 RMK A01 T01311068  RH  024%=      5-min Rain = 0
KPG1 120501Z 06017G23KT 13/M07 A3028 RMK A01 T01311069  RH  024%=      5-min Rain = 0
KPG1 120502Z 05015G23KT 13/M07 A3028 RMK A01 T01311071  RH  024%=      5-min Rain = 0
KPG1 120503Z 05015KT 13/M07 A3028 RMK A01 T01321071  RH  024%=      5-min Rain = 0
KPG1 120504Z 07014KT 13/M07 A3028 RMK A01 T01311071  RH  024%=      5-min Rain = 0
KPG1 120505Z 06011G17KT 13/M07 A3028 RMK A01 T01311070  RH  024%=      5-min Rain = 0
KPG1 120506Z 06013KT 13/M07 A3029 RMK A01 T01311070  RH  024%=      5-min Rain = 0
KPG1 120507Z 06014KT 13/M07 A3028 RMK A01 T01301070  RH  024%=      5-min Rain = 0
KPG1 120508Z 06012KT 13/M07 A3029 RMK A01 T01301070  RH  024%=      5-min Rain = 0
KPG1 120509Z 05012KT 13/M07 A3029 RMK A01 T01301070  RH  024%=      5-min Rain = 0
KPG1 120510Z 06013G18KT 13/M07 A3028 RMK A01 T01301069  RH  024%=      5-min Rain = 0
KPG1 120511Z 06012KT 13/M07 A3028 RMK A01 T01301070  RH  024%=      5-min Rain = 0
KPG1 120512Z 08014G19KT 13/M07 A3028 RMK A01 T01301070  RH  024%=      5-min Rain = 0
KPG1 120513Z 08015KT 13/M07 A3028 RMK A01 T01291070  RH  024%=      5-min Rain = 0
KPG1 120514Z 07013KT 13/M07 A3028 RMK A01 T01301070  RH  024%=      5-min Rain = 0
KPG1 120515Z 06013KT 13/M07 A3028 RMK A01 T01291070  RH  024%=      5-min Rain = 0
KPG1 120516Z 05011KT 13/M07 A3028 RMK A01 T01291070  RH  024%=      5-min Rain = 0
KPG1 120517Z 06009KT 13/M07 A3029 RMK A01 T01291070  RH  024%=      5-min Rain = 0
KPG1 120518Z 05011KT 13/M07 A3029 RMK A01 T01291070  RH  024%=      5-min Rain = 0
KPG1 120519Z 05010KT 13/M07 A3029 RMK A01 T01281070  RH  024%=      5-min Rain = 0
KPG1 120520Z 05011KT 13/M07 A3029 RMK A01 T01281070  RH  024%=      5-min Rain = 0
KPG1 120521Z 05010KT 13/M07 A3029 RMK A01 T01281070  RH  024%=      5-min Rain = 0
KPG1 120522Z 04010KT 13/M07 A3029 RMK A01 T01281071  RH  024%=      5-min Rain = 0
KPG1 120523Z 04009KT 13/M07 A3029 RMK A01 T01281071  RH  024%=      5-min Rain = 0
KPG1 120524Z 05010KT 13/M07 A3029 RMK A01 T01271072  RH  024%=      5-min Rain = 0
KPG1 120525Z 05011KT 13/M07 A3029 RMK A01 T01271072  RH  024%=      5-min Rain = 0
KPG1 120526Z 06011KT 13/M07 A3029 RMK A01 T01271072  RH  024%=      5-min Rain = 0
KPG1 120527Z 06011KT 13/M07 A3029 RMK A01 T01271073  RH  024%=      5-min Rain = 0
KPG1 120528Z 05009KT 13/M07 A3029 RMK A01 T01271073  RH  024%=      5-min Rain = 0
KPG1 120529Z 04011KT 13/M07 A3029 RMK A01 T01271074  RH  024%=      5-min Rain = 0
KPG1 120530Z 05011KT 13/M08 A3029 RMK A01 T01271075  RH  024%=      5-min Rain = 0
KPG1 120531Z 06010KT 13/M08 A3029 RMK A01 T01261077  RH  023%=      5-min Rain = 0
KPG1 120532Z 04008KT 13/M08 A303 RMK A01 T01261079  RH  023%=      5-min Rain = 0
KPG1 120533Z 05010KT 13/M08 A303 RMK A01 T01261079  RH  023%=      5-min Rain = 0
KPG1 120534Z 04008KT 13/M08 A303 RMK A01 T01261081  RH  023%=      5-min Rain = 0
KPG1 120535Z 05006KT 13/M08 A303 RMK A01 T01261081  RH  023%=      5-min Rain = 0
KPG1 120536Z 06008KT 13/M08 A303 RMK A01 T01251083  RH  023%=      5-min Rain = 0
KPG1 120537Z 04007KT 13/M09 A303 RMK A01 T01251085  RH  022%=      5-min Rain = 0
KPG1 120538Z 05008KT 13/M09 A303 RMK A01 T01251085  RH  022%=      5-min Rain = 0
KPG1 120539Z 05011KT 13/M09 A303 RMK A01 T01251085  RH  022%=      5-min Rain = 0
KPG1 120540Z 06010KT 13/M09 A303 RMK A01 T01251086  RH  022%=      5-min Rain = 0
KPG1 120541Z 05009KT 13/M09 A303 RMK A01 T01251087  RH  022%=      5-min Rain = 0
KPG1 120542Z 06010KT 13/M09 A303 RMK A01 T01251087  RH  022%=      5-min Rain = 0
KPG1 120543Z 06010KT 13/M09 A303 RMK A01 T01251089  RH  022%=      5-min Rain = 0
KPG1 120544Z 06008KT 13/M09 A303 RMK A01 T01251090  RH  021%=      5-min Rain = 0
KPG1 120545Z 05010KT 13/M09 A303 RMK A01 T01251090  RH  021%=      5-min Rain = 0
KPG1 120546Z 05010KT 13/M09 A303 RMK A01 T01251091  RH  021%=      5-min Rain = 0
KPG1 120547Z 06011KT 13/M09 A303 RMK A01 T01251092  RH  021%=      5-min Rain = 0
KPG1 120548Z 09010KT 12/M09 A303 RMK A01 T01241092  RH  021%=      5-min Rain = 0
KPG1 120549Z 07010KT 12/M09 A303 RMK A01 T01241092  RH  021%=      5-min Rain = 0
KPG1 120550Z 05010KT 13/M09 A303 RMK A01 T01251092  RH  021%=      5-min Rain = 0
KPG1 120551Z 06011KT 12/M09 A303 RMK A01 T01241093  RH  021%=      5-min Rain = 0
KPG1 120552Z 06010KT 12/M09 A303 RMK A01 T01241093  RH  021%=      5-min Rain = 0
KPG1 120553Z 06010KT 12/M09 A303 RMK A01 T01241093  RH  021%=      5-min Rain = 0
KPG1 120554Z 08007KT 12/M09 A303 RMK A01 T01241092  RH  021%=      5-min Rain = 0
KPG1 120555Z 05007KT 12/M09 A303 RMK A01 T01241092  RH  021%=      5-min Rain = 0
KPG1 120556Z 03008KT 12/M09 A303 RMK A01 T01241092  RH  021%=      5-min Rain = 0
KPG1 120557Z 04008KT 12/M09 A303 RMK A01 T01231092  RH  021%=      5-min Rain = 0
KPG1 120558Z 04009KT 12/M09 A303 RMK A01 T01231091  RH  021%=      5-min Rain = 0
KPG1 120559Z 06008KT 12/M09 A303 RMK A01 T01231091  RH  021%=      5-min Rain = 0
KPG1 120600Z 06007KT 12/M09 A303 RMK A01 T01231091  RH  022%=      5-min Rain = 0
KPG1 120601Z 05011KT 12/M09 A303 RMK A01 T01231091  RH  022%=      5-min Rain = 0
KPG1 120602Z 06011KT 12/M09 A303 RMK A01 T01241090  RH  022%=      5-min Rain = 0
KPG1 120603Z 06011KT 12/M09 A303 RMK A01 T01241090  RH  022%=      5-min Rain = 0
KPG1 120604Z 06012KT 12/M09 A303 RMK A01 T01241090  RH  022%=      5-min Rain = 0
KPG1 120605Z 06012G17KT 12/M09 A303 RMK A01 T01231091  RH  022%=      5-min Rain = 0
KPG1 120606Z 07010KT 12/M09 A303 RMK A01 T01231091  RH  022%=      5-min Rain = 0
KPG1 120607Z 04009KT 12/M09 A303 RMK A01 T01231090  RH  022%=      5-min Rain = 0
KPG1 120608Z 03009KT 12/M09 A303 RMK A01 T01231091  RH  022%=      5-min Rain = 0
KPG1 120609Z 04006KT 12/M09 A3031 RMK A01 T01231090  RH  022%=      5-min Rain = 0
KPG1 120610Z 04006KT 12/M09 A3031 RMK A01 T01231090  RH  022%=      5-min Rain = 0
KPG1 120611Z 04006KT 12/M09 A3031 RMK A01 T01231090  RH  022%=      5-min Rain = 0
KPG1 120612Z 04007KT 12/M09 A3031 RMK A01 T01231090  RH  022%=      5-min Rain = 0
KPG1 120613Z 05008KT 12/M09 A3031 RMK A01 T01231090  RH  022%=      5-min Rain = 0
KPG1 120614Z 04006KT 12/M09 A3031 RMK A01 T01221090  RH  022%=      5-min Rain = 0
KPG1 120615Z 06006KT 12/M09 A3031 RMK A01 T01221090  RH  022%=      5-min Rain = 0
KPG1 120616Z 06007KT 12/M09 A3031 RMK A01 T01221090  RH  022%=      5-min Rain = 0
KPG1 120617Z 06007KT 12/M09 A303 RMK A01 T01221090  RH  022%=      5-min Rain = 0
KPG1 120618Z 06008KT 12/M09 A303 RMK A01 T01221090  RH  022%=      5-min Rain = 0
KPG1 120619Z 06008KT 12/M09 A303 RMK A01 T01221090  RH  022%=      5-min Rain = 0
KPG1 120620Z 06010KT 12/M09 A303 RMK A01 T01221090  RH  022%=      5-min Rain = 0
KPG1 120621Z 06009KT 12/M09 A303 RMK A01 T01221091  RH  022%=      5-min Rain = 0
KPG1 120622Z 06011KT 12/M09 A3029 RMK A01 T01221091  RH  022%=      5-min Rain = 0
KPG1 120623Z 06009KT 12/M09 A303 RMK A01 T01211091  RH  022%=      5-min Rain = 0
KPG1 120624Z 05009KT 12/M09 A303 RMK A01 T01221091  RH  022%=      5-min Rain = 0
KPG1 120625Z 06011KT 12/M09 A303 RMK A01 T01221091  RH  022%=      5-min Rain = 0
KPG1 120626Z 06007KT 12/M09 A303 RMK A01 T01221091  RH  022%=      5-min Rain = 0
KPG1 120627Z 03007KT 12/M09 A303 RMK A01 T01221091  RH  022%=      5-min Rain = 0
KPG1 120628Z 03009KT 12/M09 A303 RMK A01 T01221090  RH  022%=      5-min Rain = 0
KPG1 120629Z 05007KT 12/M09 A3031 RMK A01 T01221090  RH  022%=      5-min Rain = 0
KPG1 120630Z 04008KT 12/M09 A3031 RMK A01 T01211090  RH  022%=      5-min Rain = 0
KPG1 120631Z 03009KT 12/M09 A3031 RMK A01 T01211090  RH  022%=      5-min Rain = 0
KPG1 120632Z 03009KT 12/M09 A303 RMK A01 T01211090  RH  022%=      5-min Rain = 0
KPG1 120633Z 03008KT 12/M09 A303 RMK A01 T01211090  RH  022%=      5-min Rain = 0
KPG1 120634Z 04008KT 12/M09 A303 RMK A01 T01211090  RH  022%=      5-min Rain = 0
KPG1 120635Z 04009KT 12/M09 A303 RMK A01 T01211090  RH  022%=      5-min Rain = 0
KPG1 120636Z 04007KT 12/M09 A3031 RMK A01 T01211090  RH  022%=      5-min Rain = 0
KPG1 120637Z 04008KT 12/M09 A3031 RMK A01 T01211089  RH  022%=      5-min Rain = 0
KPG1 120638Z 03009KT 12/M09 A3031 RMK A01 T01201090  RH  022%=      5-min Rain = 0
KPG1 120639Z 03009KT 12/M09 A303 RMK A01 T01211089  RH  022%=      5-min Rain = 0
KPG1 120640Z 03008KT 12/M09 A303 RMK A01 T01211089  RH  022%=      5-min Rain = 0
KPG1 120641Z 05008KT 12/M09 A303 RMK A01 T01201089  RH  022%=      5-min Rain = 0
KPG1 120642Z 06006KT 12/M09 A303 RMK A01 T01201089  RH  022%=      5-min Rain = 0
KPG1 120643Z 06005KT 12/M09 A303 RMK A01 T01201088  RH  022%=      5-min Rain = 0
KPG1 120644Z 05006KT 12/M09 A303 RMK A01 T01201089  RH  022%=      5-min Rain = 0
KPG1 120645Z 06008KT 12/M09 A303 RMK A01 T01201089  RH  022%=      5-min Rain = 0
KPG1 120646Z 06009KT 12/M09 A303 RMK A01 T01201089  RH  022%=      5-min Rain = 0
KPG1 120647Z 06008KT 12/M09 A303 RMK A01 T01201090  RH  022%=      5-min Rain = 0
KPG1 120648Z 05008KT 12/M09 A3031 RMK A01 T01201090  RH  022%=      5-min Rain = 0
KPG1 120649Z 05006KT 12/M09 A3031 RMK A01 T01201090  RH  022%=      5-min Rain = 0
KPG1 120650Z 06006KT 12/M09 A3031 RMK A01 T01201089  RH  022%=      5-min Rain = 0
KPG1 120651Z 06008KT 12/M09 A3031 RMK A01 T01201089  RH  022%=      5-min Rain = 0
KPG1 120652Z 06009KT 12/M09 A3031 RMK A01 T01201090  RH  022%=      5-min Rain = 0
KPG1 120653Z 06007KT 12/M09 A3031 RMK A01 T01201090  RH  022%=      5-min Rain = 0
KPG1 120654Z 06006KT 12/M09 A3031 RMK A01 T01201090  RH  022%=      5-min Rain = 0
KPG1 120655Z 06006KT 12/M09 A303 RMK A01 T01201090  RH  022%=      5-min Rain = 0
KPG1 120656Z 08009KT 12/M09 A303 RMK A01 T01201090  RH  022%=      5-min Rain = 0
KPG1 120657Z 08009KT 12/M09 A303 RMK A01 T01201091  RH  022%=      5-min Rain = 0
KPG1 120658Z 08010KT 12/M09 A3029 RMK A01 T01201091  RH  022%=      5-min Rain = 0
KPG1 120659Z 06010KT 12/M09 A3029 RMK A01 T01201092  RH  022%=      5-min Rain = 0
KPG1 120700Z 06010KT 12/M09 A3029 RMK A01 T01201091  RH  022%=      5-min Rain = 0
KPG1 120701Z 06008KT 12/M09 A3029 RMK A01 T01201091  RH  022%=      5-min Rain = 0
KPG1 120702Z 07008KT 12/M09 A3029 RMK A01 T01201091  RH  022%=      5-min Rain = 0
KPG1 120703Z 10011KT 12/M09 A3029 RMK A01 T01191091  RH  022%=      5-min Rain = 0
KPG1 120704Z 09011KT 12/M09 A3029 RMK A01 T01201092  RH  022%=      5-min Rain = 0
KPG1 120705Z 10009KT 12/M09 A3029 RMK A01 T01191093  RH  022%=      5-min Rain = 0
KPG1 120706Z 09011KT 12/M09 A3029 RMK A01 T01201094  RH  022%=      5-min Rain = 0
KPG1 120707Z 09010KT 12/M09 A3029 RMK A01 T01191094  RH  021%=      5-min Rain = 0
KPG1 120708Z 12011KT 12/M10 A3029 RMK A01 T01201095  RH  021%=      5-min Rain = 0
KPG1 120709Z 09008KT 12/M10 A3029 RMK A01 T01201096  RH  021%=      5-min Rain = 0
KPG1 120710Z 08008KT 12/M10 A3029 RMK A01 T01201095  RH  021%=      5-min Rain = 0
KPG1 120711Z 07009KT 12/M10 A3029 RMK A01 T01201095  RH  021%=      5-min Rain = 0
KPG1 120712Z 10012KT 12/M10 A3028 RMK A01 T01201095  RH  021%=      5-min Rain = 0
KPG1 120713Z 08010KT 12/M10 A3028 RMK A01 T01201095  RH  021%=      5-min Rain = 0
KPG1 120714Z 06013KT 12/M09 A3028 RMK A01 T01201093  RH  022%=      5-min Rain = 0
KPG1 120715Z 06013G18KT 12/M09 A3028 RMK A01 T01191093  RH  022%=      5-min Rain = 0
KPG1 120716Z 06013KT 12/M09 A3027 RMK A01 T01191093  RH  022%=      5-min Rain = 0
KPG1 120717Z 06016G21KT 12/M09 A3027 RMK A01 T01181093  RH  022%=      5-min Rain = 0
KPG1 120718Z 06016KT 12/M09 A3028 RMK A01 T01181093  RH  022%=      5-min Rain = 0
KPG1 120719Z 06013KT 12/M09 A3028 RMK A01 T01181093  RH  022%=      5-min Rain = 0
KPG1 120720Z 06012KT 12/M09 A3028 RMK A01 T01181092  RH  022%=      5-min Rain = 0
KPG1 120721Z 04011KT 12/M09 A3029 RMK A01 T01181092  RH  022%=      5-min Rain = 0
KPG1 120722Z 05008KT 12/M09 A3029 RMK A01 T01181092  RH  022%=      5-min Rain = 0
KPG1 120723Z 03009KT 12/M09 A3029 RMK A01 T01181092  RH  022%=      5-min Rain = 0
KPG1 120724Z 05007KT 12/M09 A303 RMK A01 T01181092  RH  022%=      5-min Rain = 0
KPG1 120725Z 05006KT 12/M09 A303 RMK A01 T01181091  RH  022%=      5-min Rain = 0
KPG1 120726Z 06006KT 12/M09 A303 RMK A01 T01171091  RH  022%=      5-min Rain = 0
KPG1 120727Z 07008KT 12/M09 A303 RMK A01 T01181091  RH  022%=      5-min Rain = 0
KPG1 120728Z 07009KT 12/M09 A303 RMK A01 T01181092  RH  022%=      5-min Rain = 0
KPG1 120729Z 05007KT 12/M09 A303 RMK A01 T01181092  RH  022%=      5-min Rain = 0
KPG1 120730Z 06009KT 12/M09 A303 RMK A01 T01181091  RH  022%=      5-min Rain = 0
KPG1 120731Z 07008KT 12/M09 A303 RMK A01 T01171092  RH  022%=      5-min Rain = 0
KPG1 120732Z 09005KT 12/M09 A303 RMK A01 T01171093  RH  022%=      5-min Rain = 0
KPG1 120733Z 05005KT 12/M09 A303 RMK A01 T01171093  RH  022%=      5-min Rain = 0
KPG1 120734Z 04007KT 12/M09 A303 RMK A01 T01171093  RH  022%=      5-min Rain = 0
KPG1 120735Z 05007KT 12/M09 A3031 RMK A01 T01171093  RH  022%=      5-min Rain = 0
KPG1 120736Z 05009KT 12/M09 A3031 RMK A01 T01171093  RH  022%=      5-min Rain = 0
KPG1 120737Z 06007KT 12/M09 A3031 RMK A01 T01171093  RH  022%=      5-min Rain = 0
KPG1 120738Z 06008KT 12/M09 A3031 RMK A01 T01171093  RH  022%=      5-min Rain = 0
KPG1 120739Z 07007KT 12/M09 A3031 RMK A01 T01161094  RH  022%=      5-min Rain = 0
KPG1 120740Z 05005KT 12/M09 A3031 RMK A01 T01171094  RH  022%=      5-min Rain = 0
KPG1 120741Z 05009KT 12/M09 A3031 RMK A01 T01171093  RH  022%=      5-min Rain = 0
KPG1 120742Z 04007KT 12/M09 A3031 RMK A01 T01161094  RH  022%=      5-min Rain = 0
KPG1 120743Z 05007KT 12/M09 A303 RMK A01 T01161093  RH  022%=      5-min Rain = 0
KPG1 120744Z 04005KT 12/M09 A303 RMK A01 T01161094  RH  022%=      5-min Rain = 0
KPG1 120745Z 04007KT 12/M09 A303 RMK A01 T01161093  RH  022%=      5-min Rain = 0
KPG1 120746Z 03009KT 12/M09 A303 RMK A01 T01161094  RH  022%=      5-min Rain = 0
KPG1 120747Z 04007KT 12/M09 A303 RMK A01 T01161094  RH  022%=      5-min Rain = 0
KPG1 120748Z 05008KT 12/M10 A303 RMK A01 T01161095  RH  022%=      5-min Rain = 0
KPG1 120749Z 03007KT 12/M10 A303 RMK A01 T01161095  RH  022%=      5-min Rain = 0
KPG1 120750Z 03009KT 12/M10 A303 RMK A01 T01161095  RH  022%=      5-min Rain = 0
KPG1 120751Z 03011KT 12/M10 A303 RMK A01 T01161095  RH  022%=      5-min Rain = 0
KPG1 120752Z 03010KT 12/M10 A303 RMK A01 T01161096  RH  022%=      5-min Rain = 0
KPG1 120753Z 05008KT 12/M10 A303 RMK A01 T01161095  RH  022%=      5-min Rain = 0
KPG1 120754Z 04008KT 12/M10 A303 RMK A01 T01161095  RH  022%=      5-min Rain = 0
KPG1 120755Z 03009KT 12/M10 A303 RMK A01 T01151096  RH  022%=      5-min Rain = 0
KPG1 120756Z 02012KT 12/M10 A303 RMK A01 T01151096  RH  022%=      5-min Rain = 0
KPG1 120757Z 02010KT 12/M10 A303 RMK A01 T01161097  RH  022%=      5-min Rain = 0
KPG1 120758Z 03011KT 12/M10 A303 RMK A01 T01161097  RH  022%=      5-min Rain = 0
KPG1 120759Z 03011KT 12/M10 A303 RMK A01 T01161097  RH  022%=      5-min Rain = 0
KPG1 120800Z 03013KT 12/M10 A303 RMK A01 T01161097  RH  022%=      5-min Rain = 0
KPG1 120801Z 02013KT 12/M10 A303 RMK A01 T01161097  RH  022%=      5-min Rain = 0
KPG1 120802Z 03011KT 12/M10 A303 RMK A01 T01161097  RH  022%=      5-min Rain = 0
KPG1 120803Z 02011G17KT 12/M10 A303 RMK A01 T01161097  RH  022%=      5-min Rain = 0
KPG1 120804Z 03013KT 12/M10 A303 RMK A01 T01161097  RH  022%=      5-min Rain = 0
KPG1 120805Z 03012KT 12/M10 A303 RMK A01 T01161097  RH  022%=      5-min Rain = 0
KPG1 120806Z 03010KT 12/M10 A3031 RMK A01 T01161095  RH  022%=      5-min Rain = 0
KPG1 120807Z 03012KT 12/M10 A3031 RMK A01 T01161096  RH  022%=      5-min Rain = 0
KPG1 120808Z 03009KT 12/M10 A3031 RMK A01 T01161096  RH  022%=      5-min Rain = 0
KPG1 120809Z 03010KT 12/M10 A3031 RMK A01 T01161095  RH  022%=      5-min Rain = 0
KPG1 120810Z 02010KT 12/M10 A3031 RMK A01 T01151095  RH  022%=      5-min Rain = 0
KPG1 120811Z 03012KT 12/M10 A3031 RMK A01 T01151095  RH  022%=      5-min Rain = 0
KPG1 120812Z 03009KT 12/M10 A3031 RMK A01 T01151095  RH  022%=      5-min Rain = 0
KPG1 120813Z 03009KT 12/M10 A3031 RMK A01 T01151095  RH  022%=      5-min Rain = 0
KPG1 120814Z 03010KT 12/M09 A3031 RMK A01 T01161094  RH  022%=      5-min Rain = 0
KPG1 120815Z 03010KT 12/M10 A303 RMK A01 T01151095  RH  022%=      5-min Rain = 0
KPG1 120816Z 03009KT 12/M09 A303 RMK A01 T01151094  RH  022%=      5-min Rain = 0
KPG1 120817Z 04009KT 12/M09 A303 RMK A01 T01151094  RH  022%=      5-min Rain = 0
KPG1 120818Z 03011KT 11/M09 A3029 RMK A01 T01141094  RH  022%=      5-min Rain = 0
KPG1 120819Z 03012KT 11/M09 A3029 RMK A01 T01141093  RH  022%=      5-min Rain = 0
KPG1 120820Z 03011KT 11/M09 A3029 RMK A01 T01141093  RH  022%=      5-min Rain = 0
KPG1 120821Z 03012KT 11/M09 A3029 RMK A01 T01141093  RH  023%=      5-min Rain = 0
KPG1 120822Z 03012KT 11/M09 A3029 RMK A01 T01141093  RH  023%=      5-min Rain = 0
KPG1 120823Z 03011KT 11/M09 A3029 RMK A01 T01141092  RH  023%=      5-min Rain = 0
KPG1 120824Z 02011KT 11/M09 A303 RMK A01 T01131093  RH  023%=      5-min Rain = 0
KPG1 120825Z 03009KT 11/M09 A303 RMK A01 T01141092  RH  023%=      5-min Rain = 0
KPG1 120826Z 02010G15KT 11/M09 A303 RMK A01 T01141091  RH  023%=      5-min Rain = 0
KPG1 120827Z 02011KT 11/M09 A3029 RMK A01 T01131091  RH  023%=      5-min Rain = 0
KPG1 120828Z 03010KT 11/M09 A3029 RMK A01 T01131090  RH  023%=      5-min Rain = 0
KPG1 120829Z 03009KT 11/M09 A3029 RMK A01 T01131089  RH  023%=      5-min Rain = 0
KPG1 120830Z 05007KT 11/M09 A3029 RMK A01 T01121089  RH  023%=      5-min Rain = 0
KPG1 120831Z 05006KT 11/M09 A3029 RMK A01 T01121089  RH  024%=      5-min Rain = 0
KPG1 120832Z 05005KT 11/M09 A3029 RMK A01 T01121088  RH  024%=      5-min Rain = 0
KPG1 120833Z 05004KT 11/M09 A303 RMK A01 T01121089  RH  023%=      5-min Rain = 0
KPG1 120834Z 04004KT 11/M09 A303 RMK A01 T01121089  RH  023%=      5-min Rain = 0
KPG1 120835Z 03005KT 11/M09 A303 RMK A01 T01121088  RH  024%=      5-min Rain = 0
KPG1 120836Z 03005KT 11/M09 A303 RMK A01 T01121088  RH  024%=      5-min Rain = 0
KPG1 120837Z 02007KT 11/M09 A303 RMK A01 T01121088  RH  024%=      5-min Rain = 0
KPG1 120838Z 02009KT 11/M09 A303 RMK A01 T01121088  RH  024%=      5-min Rain = 0
KPG1 120839Z 04007KT 11/M09 A303 RMK A01 T01121087  RH  024%=      5-min Rain = 0
KPG1 120840Z 05006KT 11/M09 A303 RMK A01 T01121087  RH  024%=      5-min Rain = 0
KPG1 120841Z 06006KT 11/M09 A303 RMK A01 T01111086  RH  024%=      5-min Rain = 0
KPG1 120842Z 05005KT 11/M09 A303 RMK A01 T01111086  RH  024%=      5-min Rain = 0
KPG1 120843Z 06003KT 11/M09 A303 RMK A01 T01111085  RH  024%=      5-min Rain = 0
KPG1 120844Z 04005KT 11/M09 A3029 RMK A01 T01111085  RH  024%=      5-min Rain = 0
KPG1 120845Z 04004KT 11/M09 A3029 RMK A01 T01111085  RH  024%=      5-min Rain = 0
KPG1 120846Z 04006KT 11/M09 A3029 RMK A01 T01101086  RH  024%=      5-min Rain = 0
KPG1 120847Z 05005KT 11/M09 A3029 RMK A01 T01111086  RH  024%=      5-min Rain = 0
KPG1 120848Z 04008KT 11/M09 A3029 RMK A01 T01111086  RH  024%=      5-min Rain = 0
KPG1 120849Z 05007KT 11/M09 A3029 RMK A01 T01111087  RH  024%=      5-min Rain = 0
KPG1 120850Z 06006KT 11/M09 A3029 RMK A01 T01111088  RH  024%=      5-min Rain = 0
KPG1 120851Z 06007KT 11/M09 A3029 RMK A01 T01111088  RH  024%=      5-min Rain = 0
KPG1 120852Z 04006KT 11/M09 A3029 RMK A01 T01111087  RH  024%=      5-min Rain = 0
KPG1 120853Z 04006KT 11/M09 A3029 RMK A01 T01111087  RH  024%=      5-min Rain = 0
KPG1 120854Z 04006KT 11/M09 A3029 RMK A01 T01111087  RH  024%=      5-min Rain = 0
KPG1 120855Z 03006KT 11/M09 A3029 RMK A01 T01111087  RH  024%=      5-min Rain = 0
KPG1 120856Z 03008KT 11/M09 A3029 RMK A01 T01101087  RH  024%=      5-min Rain = 0
KPG1 120857Z 03008KT 11/M09 A3029 RMK A01 T01101087  RH  024%=      5-min Rain = 0
KPG1 120858Z 02009KT 11/M09 A3029 RMK A01 T01101086  RH  024%=      5-min Rain = 0
KPG1 120859Z 03008KT 11/M09 A3029 RMK A01 T01101086  RH  024%=      5-min Rain = 0
KPG1 120900Z 03009KT 11/M09 A3029 RMK A01 T01101086  RH  024%=      5-min Rain = 0
KPG1 120901Z 03009KT 11/M09 A3029 RMK A01 T01111086  RH  024%=      5-min Rain = 0
KPG1 120902Z 02009KT 11/M09 A3029 RMK A01 T01101086  RH  024%=      5-min Rain = 0
KPG1 120903Z 01010KT 11/M09 A3029 RMK A01 T01101086  RH  024%=      5-min Rain = 0
KPG1 120904Z 01009KT 11/M09 A3029 RMK A01 T01101085  RH  025%=      5-min Rain = 0
KPG1 120905Z 00009KT 11/M09 A3029 RMK A01 T01091085  RH  025%=      5-min Rain = 0
KPG1 120906Z 01010KT 11/M08 A3029 RMK A01 T01091084  RH  025%=      5-min Rain = 0
KPG1 120907Z 00009KT 11/M08 A3029 RMK A01 T01091084  RH  025%=      5-min Rain = 0
KPG1 120908Z 00009KT 11/M09 A3029 RMK A01 T01081085  RH  025%=      5-min Rain = 0
KPG1 120909Z 01009KT 11/M09 A3029 RMK A01 T01081085  RH  025%=      5-min Rain = 0
KPG1 120910Z 01009KT 11/M09 A3029 RMK A01 T01071085  RH  025%=      5-min Rain = 0
KPG1 120911Z 01010KT 11/M09 A3029 RMK A01 T01071085  RH  025%=      5-min Rain = 0
KPG1 120912Z 01010KT 11/M09 A3029 RMK A01 T01071085  RH  025%=      5-min Rain = 0
KPG1 120913Z 02010KT 11/M09 A3028 RMK A01 T01081085  RH  025%=      5-min Rain = 0
KPG1 120914Z 02010KT 11/M09 A3028 RMK A01 T01081085  RH  025%=      5-min Rain = 0
KPG1 120915Z 02010KT 11/M09 A3028 RMK A01 T01081085  RH  025%=      5-min Rain = 0
KPG1 120916Z 02010KT 11/M08 A3028 RMK A01 T01071084  RH  025%=      5-min Rain = 0
KPG1 120917Z 01009KT 11/M09 A3028 RMK A01 T01071085  RH  025%=      5-min Rain = 0
KPG1 120918Z 01010KT 11/M08 A3028 RMK A01 T01071084  RH  025%=      5-min Rain = 0
KPG1 120919Z 03010KT 11/M08 A3029 RMK A01 T01071084  RH  025%=      5-min Rain = 0
KPG1 120920Z 02008KT 11/M08 A3029 RMK A01 T01081084  RH  025%=      5-min Rain = 0
KPG1 120921Z 02008KT 11/M08 A3029 RMK A01 T01081083  RH  025%=      5-min Rain = 0
KPG1 120922Z 02009KT 11/M08 A3029 RMK A01 T01071084  RH  025%=      5-min Rain = 0
KPG1 120923Z 01008KT 11/M09 A3029 RMK A01 T01071085  RH  025%=      5-min Rain = 0
KPG1 120924Z 01008KT 11/M09 A3029 RMK A01 T01081085  RH  025%=      5-min Rain = 0
KPG1 120925Z 01008KT 11/M09 A3029 RMK A01 T01081085  RH  025%=      5-min Rain = 0
KPG1 120926Z 01008KT 11/M08 A3029 RMK A01 T01081084  RH  025%=      5-min Rain = 0
KPG1 120927Z 02007KT 11/M08 A3029 RMK A01 T01081084  RH  025%=      5-min Rain = 0
KPG1 120928Z 02007KT 11/M09 A3029 RMK A01 T01081085  RH  025%=      5-min Rain = 0
KPG1 120929Z 01007KT 11/M09 A3029 RMK A01 T01081085  RH  025%=      5-min Rain = 0
KPG1 120930Z 00007KT 11/M08 A3029 RMK A01 T01081084  RH  025%=      5-min Rain = 0
KPG1 120931Z 00007KT 11/M09 A3029 RMK A01 T01081085  RH  025%=      5-min Rain = 0
KPG1 120932Z 00008KT 11/M09 A3029 RMK A01 T01081085  RH  025%=      5-min Rain = 0
KPG1 120933Z 00008KT 11/M09 A3029 RMK A01 T01081085  RH  025%=      5-min Rain = 0
KPG1 120934Z 36009KT 11/M09 A3029 RMK A01 T01081085  RH  025%=      5-min Rain = 0
KPG1 120935Z 00008KT 11/M09 A3029 RMK A01 T01081086  RH  025%=      5-min Rain = 0
KPG1 120936Z 00009KT 11/M09 A3029 RMK A01 T01081086  RH  025%=      5-min Rain = 0
KPG1 120937Z 01009KT 11/M09 A3029 RMK A01 T01081086  RH  025%=      5-min Rain = 0
KPG1 120938Z 00009KT 11/M09 A3029 RMK A01 T01081086  RH  025%=      5-min Rain = 0
KPG1 120939Z 00009KT 11/M09 A3029 RMK A01 T01081086  RH  025%=      5-min Rain = 0
KPG1 120940Z 00008KT 11/M09 A3029 RMK A01 T01081085  RH  025%=      5-min Rain = 0
KPG1 120941Z 36008KT 11/M09 A3029 RMK A01 T01081086  RH  025%=      5-min Rain = 0
KPG1 120942Z 36009KT 11/M09 A3029 RMK A01 T01081085  RH  025%=      5-min Rain = 0
KPG1 120943Z 00011KT 11/M09 A3029 RMK A01 T01081086  RH  025%=      5-min Rain = 0
KPG1 120944Z 00010KT 11/M09 A3029 RMK A01 T01081087  RH  025%=      5-min Rain = 0
KPG1 120945Z 00011KT 11/M09 A3029 RMK A01 T01081088  RH  024%=      5-min Rain = 0
KPG1 120946Z 00010KT 11/M09 A3029 RMK A01 T01081088  RH  024%=      5-min Rain = 0
KPG1 120947Z 01010KT 11/M09 A3029 RMK A01 T01081088  RH  024%=      5-min Rain = 0
KPG1 120948Z 01010KT 11/M09 A3029 RMK A01 T01081089  RH  024%=      5-min Rain = 0
KPG1 120949Z 00011KT 11/M09 A3029 RMK A01 T01081089  RH  024%=      5-min Rain = 0
KPG1 120950Z 01010KT 11/M09 A3029 RMK A01 T01081090  RH  024%=      5-min Rain = 0
KPG1 120951Z 01011KT 11/M09 A3029 RMK A01 T01081090  RH  024%=      5-min Rain = 0
KPG1 120952Z 01012KT 11/M09 A3029 RMK A01 T01091089  RH  024%=      5-min Rain = 0
KPG1 120953Z 00011KT 11/M09 A3029 RMK A01 T01081090  RH  024%=      5-min Rain = 0
KPG1 120954Z 00010KT 11/M09 A3029 RMK A01 T01081090  RH  024%=      5-min Rain = 0
KPG1 120955Z 01009KT 11/M09 A3029 RMK A01 T01081090  RH  024%=      5-min Rain = 0
KPG1 120956Z 02010KT 11/M09 A3029 RMK A01 T01081090  RH  024%=      5-min Rain = 0
KPG1 120957Z 02010KT 11/M09 A3029 RMK A01 T01081091  RH  024%=      5-min Rain = 0
KPG1 120958Z 02009KT 11/M09 A3029 RMK A01 T01081091  RH  024%=      5-min Rain = 0
KPG1 120959Z 00009KT 11/M09 A3029 RMK A01 T01081091  RH  024%=      5-min Rain = 0
KPG1 121000Z 36011KT 11/M09 A3029 RMK A01 T01081090  RH  024%=      5-min Rain = 0
KPG1 121001Z 00010KT 11/M09 A3029 RMK A01 T01081090  RH  024%=      5-min Rain = 0
KPG1 121002Z 36010KT 11/M09 A3029 RMK A01 T01081090  RH  024%=      5-min Rain = 0
KPG1 121003Z 00012KT 11/M09 A3029 RMK A01 T01081090  RH  024%=      5-min Rain = 0
KPG1 121004Z 00011KT 11/M09 A3029 RMK A01 T01081090  RH  024%=      5-min Rain = 0
KPG1 121005Z 00011KT 11/M09 A3029 RMK A01 T01091091  RH  024%=      5-min Rain = 0
KPG1 121006Z 00010KT 11/M09 A3029 RMK A01 T01081091  RH  024%=      5-min Rain = 0
KPG1 121007Z 00012KT 11/M09 A3029 RMK A01 T01081091  RH  024%=      5-min Rain = 0
KPG1 121008Z 00011KT 11/M09 A3029 RMK A01 T01081091  RH  024%=      5-min Rain = 0
KPG1 121009Z 00012KT 11/M09 A3029 RMK A01 T01081090  RH  024%=      5-min Rain = 0
KPG1 121010Z 00011KT 11/M09 A3029 RMK A01 T01081090  RH  024%=      5-min Rain = 0
KPG1 121011Z 01012KT 11/M09 A3029 RMK A01 T01081091  RH  024%=      5-min Rain = 0
KPG1 121012Z 01010KT 11/M09 A3029 RMK A01 T01091092  RH  023%=      5-min Rain = 0
KPG1 121013Z 02010G15KT 11/M09 A3029 RMK A01 T01091092  RH  023%=      5-min Rain = 0
KPG1 121014Z 02011KT 11/M09 A3029 RMK A01 T01101092  RH  023%=      5-min Rain = 0
KPG1 121015Z 01010KT 11/M09 A3029 RMK A01 T01101092  RH  023%=      5-min Rain = 0
KPG1 121016Z 02012KT 11/M09 A3029 RMK A01 T01101092  RH  023%=      5-min Rain = 0
KPG1 121017Z 01011KT 11/M09 A3029 RMK A01 T01101091  RH  023%=      5-min Rain = 0
KPG1 121018Z 02011KT 11/M09 A3029 RMK A01 T01101091  RH  024%=      5-min Rain = 0
KPG1 121019Z 02010KT 11/M09 A3029 RMK A01 T01091090  RH  024%=      5-min Rain = 0
KPG1 121020Z 02011KT 11/M09 A3029 RMK A01 T01091090  RH  024%=      5-min Rain = 0
KPG1 121021Z 02010KT 11/M09 A3029 RMK A01 T01091089  RH  024%=      5-min Rain = 0
KPG1 121022Z 01011KT 11/M09 A3029 RMK A01 T01091089  RH  024%=      5-min Rain = 0
KPG1 121023Z 02011KT 11/M09 A3029 RMK A01 T01091089  RH  024%=      5-min Rain = 0
KPG1 121024Z 02010KT 11/M09 A3029 RMK A01 T01081089  RH  024%=      5-min Rain = 0
KPG1 121025Z 02010KT 11/M09 A3029 RMK A01 T01091088  RH  024%=      5-min Rain = 0
KPG1 121026Z 02010KT 11/M09 A3029 RMK A01 T01081088  RH  024%=      5-min Rain = 0
KPG1 121027Z 01009KT 11/M09 A3029 RMK A01 T01081089  RH  024%=      5-min Rain = 0
KPG1 121028Z 02010KT 11/M09 A3029 RMK A01 T01081089  RH  024%=      5-min Rain = 0
KPG1 121029Z 02009KT 11/M09 A3028 RMK A01 T01081089  RH  024%=      5-min Rain = 0
KPG1 121030Z 01009KT 11/M09 A3028 RMK A01 T01081088  RH  024%=      5-min Rain = 0
KPG1 121031Z 01009KT 11/M09 A3028 RMK A01 T01071088  RH  024%=      5-min Rain = 0
KPG1 121032Z 02011KT 11/M09 A3028 RMK A01 T01081088  RH  024%=      5-min Rain = 0
KPG1 121033Z 01009KT 11/M09 A3029 RMK A01 T01081088  RH  025%=      5-min Rain = 0
KPG1 121034Z 01011KT 11/M09 A3028 RMK A01 T01071088  RH  025%=      5-min Rain = 0
KPG1 121035Z 01011KT 11/M09 A3028 RMK A01 T01071089  RH  024%=      5-min Rain = 0
KPG1 121036Z 01011KT 11/M09 A3028 RMK A01 T01071089  RH  024%=      5-min Rain = 0
KPG1 121037Z 01011KT 11/M09 A3028 RMK A01 T01071089  RH  024%=      5-min Rain = 0
KPG1 121038Z 01011KT 11/M09 A3029 RMK A01 T01071090  RH  024%=      5-min Rain = 0
KPG1 121039Z 01010KT 11/M09 A3029 RMK A01 T01071091  RH  024%=      5-min Rain = 0
KPG1 121040Z 02011KT 11/M09 A3029 RMK A01 T01071091  RH  024%=      5-min Rain = 0
KPG1 121041Z 02011KT 11/M09 A3028 RMK A01 T01071091  RH  024%=      5-min Rain = 0
KPG1 121042Z 03013KT 11/M09 A3028 RMK A01 T01071091  RH  024%=      5-min Rain = 0
KPG1 121043Z 02012KT 11/M09 A3028 RMK A01 T01071091  RH  024%=      5-min Rain = 0
KPG1 121044Z 02014KT 11/M09 A3028 RMK A01 T01071091  RH  024%=      5-min Rain = 0
KPG1 121045Z 03012KT 11/M09 A3028 RMK A01 T01071091  RH  024%=      5-min Rain = 0
KPG1 121046Z 03012KT 11/M09 A3028 RMK A01 T01071091  RH  024%=      5-min Rain = 0
KPG1 121047Z 03011KT 11/M09 A3028 RMK A01 T01071091  RH  024%=      5-min Rain = 0
KPG1 121048Z 02012KT 11/M09 A3028 RMK A01 T01071090  RH  024%=      5-min Rain = 0
KPG1 121049Z 03012KT 11/M09 A3028 RMK A01 T01061091  RH  024%=      5-min Rain = 0
KPG1 121050Z 03013KT 11/M09 A3028 RMK A01 T01071091  RH  024%=      5-min Rain = 0
KPG1 121051Z 03012KT 11/M09 A3028 RMK A01 T01071091  RH  024%=      5-min Rain = 0
KPG1 121052Z 03010KT 11/M09 A3028 RMK A01 T01071091  RH  024%=      5-min Rain = 0
KPG1 121053Z 03011KT 11/M09 A3028 RMK A01 T01061091  RH  024%=      5-min Rain = 0
KPG1 121054Z 03010KT 11/M09 A3029 RMK A01 T01061091  RH  024%=      5-min Rain = 0
KPG1 121055Z 03011KT 11/M09 A3029 RMK A01 T01061091  RH  024%=      5-min Rain = 0
KPG1 121056Z 03012KT 11/M09 A3029 RMK A01 T01061091  RH  024%=      5-min Rain = 0
KPG1 121057Z 03010KT 11/M09 A3029 RMK A01 T01061091  RH  024%=      5-min Rain = 0
KPG1 121058Z 03010KT 11/M09 A3029 RMK A01 T01061091  RH  024%=      5-min Rain = 0
KPG1 121059Z 03012G17KT 11/M09 A3029 RMK A01 T01061091  RH  024%=      5-min Rain = 0
KPG1 121100Z 03012KT 11/M09 A3029 RMK A01 T01061092  RH  024%=      5-min Rain = 0
KPG1 121101Z 03013KT 11/M09 A3029 RMK A01 T01061093  RH  024%=      5-min Rain = 0
KPG1 121102Z 03013KT 11/M09 A3029 RMK A01 T01061093  RH  024%=      5-min Rain = 0
KPG1 121103Z 03011KT 11/M09 A3029 RMK A01 T01061093  RH  024%=      5-min Rain = 0
KPG1 121104Z 03012KT 11/M09 A3029 RMK A01 T01071093  RH  024%=      5-min Rain = 0
KPG1 121105Z 03009KT 11/M09 A3029 RMK A01 T01061093  RH  024%=      5-min Rain = 0
KPG1 121106Z 03009KT 11/M09 A3029 RMK A01 T01061092  RH  024%=      5-min Rain = 0
KPG1 121107Z 03010KT 11/M09 A3029 RMK A01 T01061092  RH  024%=      5-min Rain = 0
KPG1 121108Z 03010KT 11/M09 A3029 RMK A01 T01061092  RH  024%=      5-min Rain = 0
KPG1 121109Z 03009KT 11/M09 A3029 RMK A01 T01061092  RH  024%=      5-min Rain = 0
KPG1 121110Z 04009KT 11/M09 A3029 RMK A01 T01061092  RH  024%=      5-min Rain = 0
KPG1 121111Z 03009KT 11/M09 A3029 RMK A01 T01061093  RH  024%=      5-min Rain = 0
KPG1 121112Z 03009KT 11/M09 A3029 RMK A01 T01061093  RH  024%=      5-min Rain = 0
KPG1 121113Z 03011KT 11/M09 A3029 RMK A01 T01061093  RH  024%=      5-min Rain = 0
KPG1 121114Z 04011KT 11/M09 A3029 RMK A01 T01061093  RH  024%=      5-min Rain = 0
KPG1 121115Z 02011KT 11/M09 A3029 RMK A01 T01061094  RH  024%=      5-min Rain = 0
KPG1 121116Z 02011KT 11/M09 A3029 RMK A01 T01061093  RH  024%=      5-min Rain = 0
KPG1 121117Z 02011KT 11/M09 A3029 RMK A01 T01061093  RH  024%=      5-min Rain = 0
KPG1 121118Z 02010KT 11/M09 A3029 RMK A01 T01061092  RH  024%=      5-min Rain = 0
KPG1 121119Z 02012KT 11/M09 A3029 RMK A01 T01061092  RH  024%=      5-min Rain = 0
KPG1 121120Z 02010KT 11/M09 A3029 RMK A01 T01061092  RH  024%=      5-min Rain = 0
KPG1 121121Z 02010KT 11/M09 A3029 RMK A01 T01051092  RH  024%=      5-min Rain = 0
KPG1 121122Z 02011KT 11/M09 A3029 RMK A01 T01051091  RH  024%=      5-min Rain = 0
KPG1 121123Z 02012KT 11/M09 A3029 RMK A01 T01051090  RH  024%=      5-min Rain = 0
KPG1 121124Z 01011KT 11/M09 A3029 RMK A01 T01051090  RH  024%=      5-min Rain = 0
KPG1 121125Z 02012KT 11/M09 A3029 RMK A01 T01051090  RH  024%=      5-min Rain = 0
KPG1 121126Z 02012KT 11/M09 A3029 RMK A01 T01051090  RH  024%=      5-min Rain = 0
KPG1 121127Z 01011KT 11/M09 A3029 RMK A01 T01051090  RH  024%=      5-min Rain = 0
KPG1 121128Z 02011KT 11/M09 A3029 RMK A01 T01051091  RH  024%=      5-min Rain = 0
KPG1 121129Z 01011KT 11/M09 A3029 RMK A01 T01051091  RH  024%=      5-min Rain = 0
KPG1 121130Z 02011KT 11/M09 A3029 RMK A01 T01051091  RH  024%=      5-min Rain = 0
KPG1 121131Z 01012KT 11/M09 A303 RMK A01 T01051091  RH  024%=      5-min Rain = 0
KPG1 121132Z 02012KT 11/M09 A303 RMK A01 T01051091  RH  024%=      5-min Rain = 0
KPG1 121133Z 02011KT 11/M09 A303 RMK A01 T01051092  RH  024%=      5-min Rain = 0
KPG1 121134Z 02012G18KT 11/M09 A303 RMK A01 T01061092  RH  024%=      5-min Rain = 0
KPG1 121135Z 02012G17KT 11/M09 A303 RMK A01 T01051093  RH  024%=      5-min Rain = 0
KPG1 121136Z 02013KT 11/M09 A303 RMK A01 T01051093  RH  024%=      5-min Rain = 0
KPG1 121137Z 02011KT 11/M09 A303 RMK A01 T01051093  RH  024%=      5-min Rain = 0
KPG1 121138Z 02012KT 11/M09 A303 RMK A01 T01061093  RH  024%=      5-min Rain = 0
KPG1 121139Z 03011KT 11/M09 A303 RMK A01 T01061093  RH  024%=      5-min Rain = 0
KPG1 121140Z 03011G16KT 11/M09 A303 RMK A01 T01061093  RH  024%=      5-min Rain = 0
KPG1 121141Z 02011KT 11/M09 A303 RMK A01 T01061093  RH  024%=      5-min Rain = 0
KPG1 121142Z 02012KT 11/M09 A303 RMK A01 T01061093  RH  024%=      5-min Rain = 0
KPG1 121143Z 01011KT 11/M09 A303 RMK A01 T01061094  RH  024%=      5-min Rain = 0
KPG1 121144Z 02011KT 11/M09 A303 RMK A01 T01061094  RH  024%=      5-min Rain = 0
KPG1 121145Z 01011KT 11/M09 A303 RMK A01 T01061093  RH  024%=      5-min Rain = 0
KPG1 121146Z 01012KT 11/M09 A303 RMK A01 T01061093  RH  024%=      5-min Rain = 0
KPG1 121147Z 01010KT 11/M09 A303 RMK A01 T01061093  RH  024%=      5-min Rain = 0
KPG1 121148Z 01012KT 11/M09 A303 RMK A01 T01061093  RH  024%=      5-min Rain = 0
KPG1 121149Z 01012KT 11/M09 A303 RMK A01 T01061094  RH  024%=      5-min Rain = 0
KPG1 121150Z 01012KT 11/M09 A303 RMK A01 T01061094  RH  024%=      5-min Rain = 0
KPG1 121151Z 02011KT 11/M09 A303 RMK A01 T01061094  RH  024%=      5-min Rain = 0
KPG1 121152Z 01011KT 11/M09 A303 RMK A01 T01051094  RH  024%=      5-min Rain = 0
KPG1 121153Z 01013KT 11/M09 A303 RMK A01 T01061093  RH  024%=      5-min Rain = 0
KPG1 121154Z 01012KT 11/M09 A303 RMK A01 T01061093  RH  024%=      5-min Rain = 0
KPG1 121155Z 01013KT 11/M09 A303 RMK A01 T01061093  RH  024%=      5-min Rain = 0
KPG1 121156Z 01011KT 11/M09 A303 RMK A01 T01061093  RH  024%=      5-min Rain = 0
KPG1 121157Z 02012KT 11/M09 A303 RMK A01 T01051092  RH  024%=      5-min Rain = 0
KPG1 121158Z 01013KT 11/M09 A303 RMK A01 T01061092  RH  024%=      5-min Rain = 0
KPG1 121159Z 02014KT 11/M09 A303 RMK A01 T01051093  RH  024%=      5-min Rain = 0
KPG1 121200Z 02011KT 11/M09 A303 RMK A01 T01051094  RH  024%=      5-min Rain = 0
KPG1 121201Z 02013KT 11/M09 A303 RMK A01 T01051093  RH  024%=      5-min Rain = 0
KPG1 121202Z 03014G19KT 11/M09 A303 RMK A01 T01051093  RH  024%=      5-min Rain = 0
KPG1 121203Z 02012KT 11/M09 A303 RMK A01 T01051093  RH  024%=      5-min Rain = 0
KPG1 121204Z 02012KT 11/M09 A303 RMK A01 T01051093  RH  024%=      5-min Rain = 0
KPG1 121205Z 02014KT 11/M09 A303 RMK A01 T01051093  RH  024%=      5-min Rain = 0
KPG1 121206Z 02013KT 11/M09 A303 RMK A01 T01051093  RH  024%=      5-min Rain = 0
KPG1 121207Z 01013KT 11/M09 A3031 RMK A01 T01051093  RH  024%=      5-min Rain = 0
KPG1 121208Z 02012KT 11/M09 A3031 RMK A01 T01051093  RH  024%=      5-min Rain = 0
KPG1 121209Z 02011KT 11/M09 A3031 RMK A01 T01051093  RH  024%=      5-min Rain = 0
KPG1 121210Z 02013KT 11/M09 A303 RMK A01 T01051093  RH  024%=      5-min Rain = 0
KPG1 121211Z 03012KT 11/M09 A303 RMK A01 T01051092  RH  024%=      5-min Rain = 0
KPG1 121212Z 03014KT 10/M09 A303 RMK A01 T01041093  RH  024%=      5-min Rain = 0
KPG1 121213Z 03012KT 10/M09 A303 RMK A01 T01041093  RH  024%=      5-min Rain = 0
KPG1 121214Z 03011KT 10/M09 A303 RMK A01 T01041092  RH  024%=      5-min Rain = 0
KPG1 121215Z 03012G17KT 10/M09 A303 RMK A01 T01041092  RH  024%=      5-min Rain = 0
KPG1 121216Z 03014KT 10/M09 A303 RMK A01 T01041092  RH  024%=      5-min Rain = 0
KPG1 121217Z 03014KT 10/M09 A303 RMK A01 T01041092  RH  024%=      5-min Rain = 0
KPG1 121218Z 03011KT 10/M09 A303 RMK A01 T01041092  RH  024%=      5-min Rain = 0
KPG1 121219Z 02013KT 10/M09 A303 RMK A01 T01031093  RH  024%=      5-min Rain = 0
KPG1 121220Z 03012KT 10/M09 A303 RMK A01 T01031093  RH  024%=      5-min Rain = 0
KPG1 121221Z 03013G18KT 10/M09 A303 RMK A01 T01031093  RH  024%=      5-min Rain = 0
KPG1 121222Z 03014G21KT 10/M09 A303 RMK A01 T01031092  RH  024%=      5-min Rain = 0
KPG1 121223Z 03012G19KT 10/M09 A303 RMK A01 T01031093  RH  024%=      5-min Rain = 0
KPG1 121224Z 03012KT 10/M09 A303 RMK A01 T01031092  RH  024%=      5-min Rain = 0
KPG1 121225Z 03012KT 10/M09 A303 RMK A01 T01031092  RH  024%=      5-min Rain = 0
KPG1 121226Z 03014KT 10/M09 A303 RMK A01 T01031093  RH  024%=      5-min Rain = 0
KPG1 121227Z 04014KT 10/M09 A3031 RMK A01 T01031093  RH  024%=      5-min Rain = 0
KPG1 121228Z 03012KT 10/M09 A3031 RMK A01 T01031094  RH  024%=      5-min Rain = 0
KPG1 121229Z 03010KT 10/M09 A3031 RMK A01 T01031094  RH  024%=      5-min Rain = 0
KPG1 121230Z 03012KT 10/M09 A3031 RMK A01 T01031094  RH  024%=      5-min Rain = 0
KPG1 121231Z 03012KT 10/M09 A3031 RMK A01 T01031094  RH  024%=      5-min Rain = 0
KPG1 121232Z 03012KT 10/M10 A3031 RMK A01 T01031095  RH  024%=      5-min Rain = 0
KPG1 121233Z 02011KT 10/M10 A3031 RMK A01 T01031095  RH  024%=      5-min Rain = 0
KPG1 121234Z 03011G16KT 10/M09 A3031 RMK A01 T01031094  RH  024%=      5-min Rain = 0
KPG1 121235Z 02011KT 10/M09 A3031 RMK A01 T01031094  RH  024%=      5-min Rain = 0
KPG1 121236Z 02012KT 10/M09 A3031 RMK A01 T01031093  RH  024%=      5-min Rain = 0
KPG1 121237Z 03013KT 10/M09 A3031 RMK A01 T01031094  RH  024%=      5-min Rain = 0
KPG1 121238Z 02012G17KT 10/M09 A3031 RMK A01 T01021094  RH  024%=      5-min Rain = 0
KPG1 121239Z 03013KT 10/M09 A3031 RMK A01 T01021094  RH  024%=      5-min Rain = 0
KPG1 121240Z 03014KT 10/M09 A3031 RMK A01 T01021094  RH  024%=      5-min Rain = 0
KPG1 121241Z 03014KT 10/M09 A3031 RMK A01 T01021094  RH  024%=      5-min Rain = 0
KPG1 121242Z 03014KT 10/M09 A3031 RMK A01 T01021094  RH  024%=      5-min Rain = 0
KPG1 121243Z 03015KT 10/M09 A3031 RMK A01 T01031093  RH  024%=      5-min Rain = 0
KPG1 121244Z 03015KT 10/M09 A3031 RMK A01 T01031093  RH  024%=      5-min Rain = 0
KPG1 121245Z 03017KT 10/M09 A3031 RMK A01 T01031093  RH  024%=      5-min Rain = 0
KPG1 121246Z 03016KT 10/M09 A3031 RMK A01 T01021094  RH  024%=      5-min Rain = 0
KPG1 121247Z 03018KT 10/M09 A3031 RMK A01 T01021094  RH  024%=      5-min Rain = 0
KPG1 121248Z 03016KT 10/M09 A3031 RMK A01 T01021094  RH  024%=      5-min Rain = 0
KPG1 121249Z 03016KT 10/M10 A3031 RMK A01 T01031095  RH  024%=      5-min Rain = 0
KPG1 121250Z 02016G21KT 10/M10 A3032 RMK A01 T01031095  RH  024%=      5-min Rain = 0
KPG1 121251Z 03018KT 10/M09 A3032 RMK A01 T01031094  RH  024%=      5-min Rain = 0
KPG1 121252Z 03015KT 10/M10 A3032 RMK A01 T01031095  RH  024%=      5-min Rain = 0
KPG1 121253Z 03016KT 10/M10 A3032 RMK A01 T01031095  RH  024%=      5-min Rain = 0
KPG1 121254Z 03016KT 10/M10 A3032 RMK A01 T01031096  RH  024%=      5-min Rain = 0
KPG1 121255Z 03018KT 10/M10 A3032 RMK A01 T01031096  RH  024%=      5-min Rain = 0
KPG1 121256Z 03016KT 10/M10 A3032 RMK A01 T01031095  RH  024%=      5-min Rain = 0
KPG1 121257Z 03016KT 10/M10 A3031 RMK A01 T01031096  RH  024%=      5-min Rain = 0
KPG1 121258Z 03016KT 10/M10 A3031 RMK A01 T01021096  RH  024%=      5-min Rain = 0
KPG1 121259Z 03017KT 10/M10 A3032 RMK A01 T01031096  RH  024%=      5-min Rain = 0
KPG1 121300Z 03018KT 10/M10 A3032 RMK A01 T01021096  RH  024%=      5-min Rain = 0
KPG1 121301Z 03016KT 10/M10 A3032 RMK A01 T01021096  RH  024%=      5-min Rain = 0
KPG1 121302Z 03018KT 10/M10 A3032 RMK A01 T01021096  RH  024%=      5-min Rain = 0
KPG1 121303Z 03016KT 10/M10 A3032 RMK A01 T01021096  RH  024%=      5-min Rain = 0
KPG1 121304Z 03016KT 10/M10 A3032 RMK A01 T01021097  RH  024%=      5-min Rain = 0
KPG1 121305Z 03017KT 10/M10 A3032 RMK A01 T01021097  RH  024%=      5-min Rain = 0
KPG1 121306Z 03017KT 10/M10 A3032 RMK A01 T01021097  RH  024%=      5-min Rain = 0
KPG1 121307Z 03017KT 10/M10 A3032 RMK A01 T01021097  RH  024%=      5-min Rain = 0
KPG1 121308Z 03017KT 10/M10 A3032 RMK A01 T01021097  RH  024%=      5-min Rain = 0
KPG1 121309Z 03016KT 10/M10 A3032 RMK A01 T01021097  RH  024%=      5-min Rain = 0
KPG1 121310Z 03018KT 10/M10 A3032 RMK A01 T01021097  RH  024%=      5-min Rain = 0
KPG1 121311Z 03016KT 10/M10 A3032 RMK A01 T01021097  RH  024%=      5-min Rain = 0
KPG1 121312Z 03016KT 10/M10 A3032 RMK A01 T01021097  RH  024%=      5-min Rain = 0
KPG1 121313Z 03015G20KT 10/M10 A3032 RMK A01 T01021097  RH  024%=      5-min Rain = 0
KPG1 121314Z 03016KT 10/M10 A3032 RMK A01 T01021097  RH  024%=      5-min Rain = 0
KPG1 121315Z 03015G21KT 10/M10 A3032 RMK A01 T01021098  RH  024%=      5-min Rain = 0
KPG1 121316Z 03014G19KT 10/M10 A3032 RMK A01 T01021098  RH  024%=      5-min Rain = 0
KPG1 121317Z 03016KT 10/M10 A3032 RMK A01 T01011098  RH  024%=      5-min Rain = 0
KPG1 121318Z 03015G20KT 10/M10 A3032 RMK A01 T01011097  RH  024%=      5-min Rain = 0
KPG1 121319Z 03015G20KT 10/M10 A3032 RMK A01 T01011098  RH  024%=      5-min Rain = 0
KPG1 121320Z 03015KT 10/M10 A3032 RMK A01 T01001098  RH  024%=      5-min Rain = 0
KPG1 121321Z 03015KT 10/M10 A3032 RMK A01 T01011098  RH  024%=      5-min Rain = 0
KPG1 121322Z 03014KT 10/M10 A3032 RMK A01 T01011098  RH  024%=      5-min Rain = 0
KPG1 121323Z 04016KT 10/M10 A3031 RMK A01 T01001098  RH  024%=      5-min Rain = 0
KPG1 121324Z 03017KT 10/M10 A3031 RMK A01 T01001098  RH  024%=      5-min Rain = 0
KPG1 121325Z 03016KT 10/M10 A3031 RMK A01 T01001097  RH  024%=      5-min Rain = 0
KPG1 121326Z 03016KT 10/M10 A3031 RMK A01 T01001097  RH  024%=      5-min Rain = 0
KPG1 121327Z 03016KT 10/M10 A3031 RMK A01 T01001097  RH  024%=      5-min Rain = 0
KPG1 121328Z 03015KT 10/M10 A3031 RMK A01 T01001097  RH  024%=      5-min Rain = 0
KPG1 121329Z 03014KT 10/M10 A3031 RMK A01 T01001097  RH  024%=      5-min Rain = 0
KPG1 121330Z 03013KT 10/M10 A3032 RMK A01 T01001097  RH  024%=      5-min Rain = 0
KPG1 121331Z 04012KT 10/M10 A3032 RMK A01 T01001097  RH  024%=      5-min Rain = 0
KPG1 121332Z 03012KT 10/M10 A3032 RMK A01 T01001097  RH  024%=      5-min Rain = 0
KPG1 121333Z 03011G17KT 10/M10 A3032 RMK A01 T01001097  RH  024%=      5-min Rain = 0
KPG1 121334Z 03014KT 10/M10 A3032 RMK A01 T01001098  RH  024%=      5-min Rain = 0
KPG1 121335Z 03015KT 10/M10 A3032 RMK A01 T01011098  RH  024%=      5-min Rain = 0
KPG1 121336Z 03015KT 10/M10 A3032 RMK A01 T01001098  RH  024%=      5-min Rain = 0
KPG1 121337Z 03016G23KT 10/M10 A3032 RMK A01 T01001098  RH  024%=      5-min Rain = 0
KPG1 121338Z 03015KT 10/M10 A3032 RMK A01 T01001098  RH  024%=      5-min Rain = 0
KPG1 121339Z 03016KT 10/M10 A3032 RMK A01 T01001098  RH  024%=      5-min Rain = 0
KPG1 121340Z 03017KT 10/M10 A3032 RMK A01 T01001098  RH  024%=      5-min Rain = 0
KPG1 121341Z 03016KT 10/M10 A3032 RMK A01 T01001098  RH  024%=      5-min Rain = 0
KPG1 121342Z 03016KT 10/M10 A3032 RMK A01 T01001098  RH  024%=      5-min Rain = 0
KPG1 121343Z 03015G20KT 10/M10 A3032 RMK A01 T01001098  RH  024%=      5-min Rain = 0
KPG1 121344Z 03014KT 10/M10 A3032 RMK A01 T01001098  RH  024%=      5-min Rain = 0
KPG1 121345Z 03015KT 10/M10 A3033 RMK A01 T01001098  RH  024%=      5-min Rain = 0
KPG1 121346Z 03017KT 10/M10 A3033 RMK A01 T01001098  RH  024%=      5-min Rain = 0
KPG1 121347Z 03017KT 10/M10 A3033 RMK A01 T01001099  RH  024%=      5-min Rain = 0
KPG1 121348Z 03014KT 10/M10 A3033 RMK A01 T01001099  RH  024%=      5-min Rain = 0
KPG1 121349Z 03016KT 10/M10 A3033 RMK A01 T01001099  RH  024%=      5-min Rain = 0
KPG1 121350Z 03015KT 10/M10 A3033 RMK A01 T01001098  RH  024%=      5-min Rain = 0
KPG1 121351Z 03015KT 10/M10 A3033 RMK A01 T01001098  RH  024%=      5-min Rain = 0
KPG1 121352Z 03016KT 10/M10 A3033 RMK A01 T01001099  RH  024%=      5-min Rain = 0
KPG1 121353Z 03015KT 10/M10 A3033 RMK A01 T01001099  RH  024%=      5-min Rain = 0
KPG1 121354Z 03015KT 10/M10 A3033 RMK A01 T01001099  RH  024%=      5-min Rain = 0
KPG1 121355Z 03015G20KT 10/M10 A3033 RMK A01 T01001099  RH  024%=      5-min Rain = 0
KPG1 121356Z 03013KT 10/M10 A3033 RMK A01 T01001099  RH  024%=      5-min Rain = 0
KPG1 121357Z 03015KT 10/M10 A3033 RMK A01 T01001099  RH  024%=      5-min Rain = 0
KPG1 121358Z 03012KT 10/M10 A3033 RMK A01 T01001099  RH  024%=      5-min Rain = 0
KPG1 121359Z 03015G21KT 10/M10 A3033 RMK A01 T01001099  RH  024%=      5-min Rain = 0
KPG1 121400Z 03015G22KT 10/M10 A3033 RMK A01 T01001098  RH  024%=      5-min Rain = 0
KPG1 121401Z 03014KT 10/M10 A3033 RMK A01 T01001098  RH  024%=      5-min Rain = 0
KPG1 121402Z 04014KT 10/M10 A3033 RMK A01 T01001099  RH  024%=      5-min Rain = 0
KPG1 121403Z 03014KT 10/M10 A3033 RMK A01 T01011099  RH  024%=      5-min Rain = 0
KPG1 121404Z 03014KT 10/M10 A3033 RMK A01 T01011098  RH  024%=      5-min Rain = 0
KPG1 121405Z 03015KT 10/M10 A3033 RMK A01 T01011098  RH  024%=      5-min Rain = 0
KPG1 121406Z 03014KT 10/M10 A3033 RMK A01 T01011098  RH  024%=      5-min Rain = 0
KPG1 121407Z 04013KT 10/M10 A3033 RMK A01 T01011098  RH  024%=      5-min Rain = 0
KPG1 121408Z 03016KT 10/M10 A3033 RMK A01 T01001098  RH  024%=      5-min Rain = 0
KPG1 121409Z 03014KT 10/M10 A3033 RMK A01 T01011098  RH  024%=      5-min Rain = 0
KPG1 121410Z 03015KT 10/M10 A3034 RMK A01 T01011098  RH  024%=      5-min Rain = 0
KPG1 121411Z 03015KT 10/M10 A3034 RMK A01 T01001098  RH  024%=      5-min Rain = 0
KPG1 121412Z 03016KT 10/M10 A3034 RMK A01 T01001098  RH  024%=      5-min Rain = 0
KPG1 121413Z 03016KT 10/M10 A3034 RMK A01 T01011098  RH  024%=      5-min Rain = 0
KPG1 121414Z 04014G20KT 10/M10 A3034 RMK A01 T01011098  RH  024%=      5-min Rain = 0
KPG1 121415Z 04016KT 10/M10 A3033 RMK A01 T01011098  RH  024%=      5-min Rain = 0
KPG1 121416Z 03018KT 10/M10 A3033 RMK A01 T01011098  RH  024%=      5-min Rain = 0
KPG1 121417Z 04017KT 10/M10 A3034 RMK A01 T01011098  RH  024%=      5-min Rain = 0
KPG1 121418Z 03013G19KT 10/M10 A3033 RMK A01 T01011098  RH  024%=      5-min Rain = 0
KPG1 121419Z 04017KT 10/M10 A3033 RMK A01 T01011097  RH  024%=      5-min Rain = 0
KPG1 121420Z 03015KT 10/M10 A3034 RMK A01 T01011098  RH  024%=      5-min Rain = 0
KPG1 121421Z 03015KT 10/M10 A3034 RMK A01 T01011098  RH  024%=      5-min Rain = 0
KPG1 121422Z 03018KT 10/M10 A3034 RMK A01 T01021098  RH  023%=      5-min Rain = 0
KPG1 121423Z 04018KT 10/M10 A3034 RMK A01 T01021099  RH  023%=      5-min Rain = 0
KPG1 121424Z 03015KT 10/M10 A3034 RMK A01 T01011099  RH  023%=      5-min Rain = 0
KPG1 121425Z 03017KT 10/M10 A3034 RMK A01 T01021099  RH  023%=      5-min Rain = 0
KPG1 121426Z 04017KT 10/M10 A3034 RMK A01 T01021099  RH  023%=      5-min Rain = 0
KPG1 121427Z 03015G21KT 10/M10 A3034 RMK A01 T01021099  RH  023%=      5-min Rain = 0
KPG1 121428Z 03014KT 10/M10 A3034 RMK A01 T01021098  RH  023%=      5-min Rain = 0
KPG1 121429Z 03017KT 10/M10 A3034 RMK A01 T01021098  RH  023%=      5-min Rain = 0
KPG1 121430Z 03017KT 10/M10 A3034 RMK A01 T01021099  RH  023%=      5-min Rain = 0
KPG1 121431Z 03017KT 10/M10 A3034 RMK A01 T01021098  RH  023%=      5-min Rain = 0
KPG1 121432Z 03017KT 10/M10 A3034 RMK A01 T01031098  RH  023%=      5-min Rain = 0
KPG1 121433Z 03016KT 10/M10 A3034 RMK A01 T01021098  RH  023%=      5-min Rain = 0
KPG1 121434Z 03015G20KT 10/M10 A3034 RMK A01 T01021098  RH  023%=      5-min Rain = 0
KPG1 121435Z 03017KT 10/M10 A3034 RMK A01 T01031098  RH  023%=      5-min Rain = 0
KPG1 121436Z 03016KT 10/M10 A3034 RMK A01 T01031098  RH  023%=      5-min Rain = 0
KPG1 121437Z 03018KT 10/M10 A3034 RMK A01 T01031099  RH  023%=      5-min Rain = 0
KPG1 121438Z 03018KT 10/M10 A3034 RMK A01 T01031099  RH  023%=      5-min Rain = 0
KPG1 121439Z 03014KT 10/M10 A3035 RMK A01 T01031099  RH  023%=      5-min Rain = 0
KPG1 121440Z 03014KT 10/M10 A3035 RMK A01 T01031098  RH  023%=      5-min Rain = 0
KPG1 121441Z 03016KT 10/M10 A3035 RMK A01 T01041098  RH  023%=      5-min Rain = 0
KPG1 121442Z 03017KT 10/M10 A3035 RMK A01 T01041098  RH  023%=      5-min Rain = 0
KPG1 121443Z 03016KT 10/M10 A3035 RMK A01 T01041098  RH  023%=      5-min Rain = 0
KPG1 121444Z 03014KT 10/M10 A3035 RMK A01 T01041098  RH  023%=      5-min Rain = 0
KPG1 121445Z 04017KT 10/M10 A3035 RMK A01 T01041098  RH  023%=      5-min Rain = 0
KPG1 121446Z 04014KT 11/M10 A3035 RMK A01 T01051098  RH  023%=      5-min Rain = 0
KPG1 121447Z 03015KT 11/M10 A3035 RMK A01 T01051098  RH  023%=      5-min Rain = 0
KPG1 121448Z 03016KT 11/M10 A3035 RMK A01 T01061098  RH  023%=      5-min Rain = 0
KPG1 121449Z 03015KT 11/M10 A3035 RMK A01 T01061098  RH  023%=      5-min Rain = 0
KPG1 121450Z 03017KT 11/M10 A3035 RMK A01 T01051098  RH  023%=      5-min Rain = 0
KPG1 121451Z 03017KT 11/M10 A3035 RMK A01 T01061098  RH  023%=      5-min Rain = 0
KPG1 121452Z 03015KT 11/M10 A3035 RMK A01 T01061098  RH  023%=      5-min Rain = 0
KPG1 121453Z 03017KT 11/M10 A3035 RMK A01 T01061098  RH  023%=      5-min Rain = 0
KPG1 121454Z 03016KT 11/M10 A3035 RMK A01 T01061098  RH  023%=      5-min Rain = 0
KPG1 121455Z 03016KT 11/M10 A3035 RMK A01 T01061098  RH  023%=      5-min Rain = 0
KPG1 121456Z 03017KT 11/M10 A3035 RMK A01 T01061097  RH  023%=      5-min Rain = 0
KPG1 121457Z 04017KT 11/M10 A3035 RMK A01 T01061098  RH  023%=      5-min Rain = 0
KPG1 121458Z 03017KT 11/M10 A3035 RMK A01 T01061098  RH  023%=      5-min Rain = 0
KPG1 121459Z 03016KT 11/M10 A3035 RMK A01 T01071098  RH  023%=      5-min Rain = 0
KPG1 121500Z 03017KT 11/M10 A3035 RMK A01 T01071098  RH  023%=      5-min Rain = 0
KPG1 121501Z 03014KT 11/M10 A3035 RMK A01 T01071098  RH  023%=      5-min Rain = 0
KPG1 121502Z 03015KT 11/M10 A3035 RMK A01 T01081097  RH  023%=      5-min Rain = 0
KPG1 121503Z 03017KT 11/M10 A3035 RMK A01 T01081098  RH  023%=      5-min Rain = 0
KPG1 121504Z 04017KT 11/M10 A3035 RMK A01 T01081099  RH  022%=      5-min Rain = 0
KPG1 121505Z 04017KT 11/M10 A3036 RMK A01 T01071099  RH  022%=      5-min Rain = 0
KPG1 121506Z 04016KT 11/M10 A3036 RMK A01 T01071099  RH  022%=      5-min Rain = 0
KPG1 121507Z 04016KT 11/M10 A3036 RMK A01 T01071099  RH  022%=      5-min Rain = 0
KPG1 121508Z 03017KT 11/M10 A3036 RMK A01 T01081099  RH  022%=      5-min Rain = 0
KPG1 121509Z 03016KT 11/M10 A3036 RMK A01 T01081099  RH  022%=      5-min Rain = 0
KPG1 121510Z 04016KT 11/M10 A3036 RMK A01 T01081099  RH  022%=      5-min Rain = 0
KPG1 121511Z 04018KT 11/M10 A3036 RMK A01 T01091098  RH  022%=      5-min Rain = 0
KPG1 121512Z 03014KT 11/M10 A3036 RMK A01 T01091098  RH  022%=      5-min Rain = 0
KPG1 121513Z 03017KT 11/M10 A3036 RMK A01 T01101097  RH  022%=      5-min Rain = 0
KPG1 121514Z 04016KT 11/M10 A3036 RMK A01 T01101097  RH  022%=      5-min Rain = 0
KPG1 121515Z 03013KT 11/M10 A3036 RMK A01 T01101097  RH  022%=      5-min Rain = 0
KPG1 121516Z 03016G21KT 11/M10 A3036 RMK A01 T01101097  RH  022%=      5-min Rain = 0
KPG1 121517Z 04016G22KT 11/M10 A3036 RMK A01 T01111098  RH  022%=      5-min Rain = 0
KPG1 121518Z 04016KT 11/M10 A3036 RMK A01 T01111097  RH  022%=      5-min Rain = 0
KPG1 121519Z 04016KT 11/M10 A3036 RMK A01 T01111098  RH  022%=      5-min Rain = 0
KPG1 121520Z 03015KT 11/M10 A3035 RMK A01 T01101098  RH  022%=      5-min Rain = 0
KPG1 121521Z 03014G19KT 11/M10 A3035 RMK A01 T01111097  RH  022%=      5-min Rain = 0
KPG1 121522Z 04018KT 11/M10 A3035 RMK A01 T01121097  RH  022%=      5-min Rain = 0
KPG1 121523Z 03017KT 11/M10 A3035 RMK A01 T01121098  RH  022%=      5-min Rain = 0
KPG1 121524Z 03014KT 11/M10 A3036 RMK A01 T01121098  RH  022%=      5-min Rain = 0
KPG1 121525Z 03014KT 11/M10 A3036 RMK A01 T01121097  RH  022%=      5-min Rain = 0
KPG1 121526Z 04016KT 11/M10 A3036 RMK A01 T01131096  RH  022%=      5-min Rain = 0
KPG1 121527Z 03017KT 11/M10 A3036 RMK A01 T01141097  RH  022%=      5-min Rain = 0
KPG1 121528Z 03016KT 11/M10 A3035 RMK A01 T01131098  RH  022%=      5-min Rain = 0
KPG1 121529Z 03016KT 11/M10 A3035 RMK A01 T01131098  RH  022%=      5-min Rain = 0
KPG1 121530Z 03016KT 11/M10 A3035 RMK A01 T01131097  RH  022%=      5-min Rain = 0
KPG1 121531Z 04014KT 11/M10 A3035 RMK A01 T01131097  RH  022%=      5-min Rain = 0
KPG1 121532Z 03014KT 11/M10 A3035 RMK A01 T01141097  RH  022%=      5-min Rain = 0
KPG1 121533Z 04014KT 11/M10 A3035 RMK A01 T01141097  RH  022%=      5-min Rain = 0
KPG1 121534Z 03016KT 11/M10 A3035 RMK A01 T01141098  RH  022%=      5-min Rain = 0
KPG1 121535Z 03016KT 11/M10 A3035 RMK A01 T01141098  RH  022%=      5-min Rain = 0
KPG1 121536Z 03017KT 11/M10 A3035 RMK A01 T01141099  RH  022%=      5-min Rain = 0
KPG1 121537Z 03017KT 11/M10 A3035 RMK A01 T01141099  RH  022%=      5-min Rain = 0
KPG1 121538Z 03015KT 11/M10 A3035 RMK A01 T01141099  RH  021%=      5-min Rain = 0
KPG1 121539Z 03014G20KT 11/M10 A3035 RMK A01 T01141099  RH  021%=      5-min Rain = 0
KPG1 121540Z 04011G17KT 11/M10 A3035 RMK A01 T01141098  RH  022%=      5-min Rain = 0
KPG1 121541Z 02015KT 11/M10 A3035 RMK A01 T01141099  RH  022%=      5-min Rain = 0
KPG1 121542Z 03015KT 11/M10 A3036 RMK A01 T01141099  RH  021%=      5-min Rain = 0
KPG1 121543Z 03014KT 11/M10 A3036 RMK A01 T01131100  RH  021%=      5-min Rain = 0
KPG1 121544Z 03013KT 11/M10 A3035 RMK A01 T01131099  RH  022%=      5-min Rain = 0
KPG1 121545Z 03014KT 12/M10 A3035 RMK A01 T01151098  RH  022%=      5-min Rain = 0
KPG1 121546Z 03013KT 12/M10 A3035 RMK A01 T01161097  RH  021%=      5-min Rain = 0
KPG1 121547Z 04015KT 12/M10 A3035 RMK A01 T01171098  RH  021%=      5-min Rain = 0
KPG1 121548Z 03015KT 12/M10 A3035 RMK A01 T01161098  RH  021%=      5-min Rain = 0
KPG1 121549Z 04014KT 12/M10 A3035 RMK A01 T01161097  RH  021%=      5-min Rain = 0
KPG1 121550Z 03012KT 12/M10 A3035 RMK A01 T01151097  RH  022%=      5-min Rain = 0
KPG1 121551Z 03015KT 12/M10 A3035 RMK A01 T01161097  RH  021%=      5-min Rain = 0
KPG1 121552Z 03013KT 12/M10 A3035 RMK A01 T01171098  RH  021%=      5-min Rain = 0
KPG1 121553Z 03015KT 12/M10 A3036 RMK A01 T01161098  RH  021%=      5-min Rain = 0
KPG1 121554Z 02015KT 12/M10 A3036 RMK A01 T01161098  RH  021%=      5-min Rain = 0
KPG1 121555Z 04014KT 12/M10 A3036 RMK A01 T01161097  RH  021%=      5-min Rain = 0
KPG1 121556Z 04012KT 12/M10 A3036 RMK A01 T01161097  RH  021%=      5-min Rain = 0
KPG1 121557Z 03013KT 12/M10 A3036 RMK A01 T01171097  RH  021%=      5-min Rain = 0
KPG1 121558Z 04015KT 12/M10 A3036 RMK A01 T01171097  RH  021%=      5-min Rain = 0
KPG1 121559Z 03014KT 12/M10 A3036 RMK A01 T01171096  RH  022%=      5-min Rain = 0
KPG1 121600Z 03012KT 12/M10 A3036 RMK A01 T01181096  RH  021%=      5-min Rain = 0
KPG1 121601Z 03014KT 12/M10 A3036 RMK A01 T01181097  RH  021%=      5-min Rain = 0
KPG1 121602Z 03014KT 12/M10 A3036 RMK A01 T01181098  RH  021%=      5-min Rain = 0
KPG1 121603Z 03013G18KT 12/M10 A3036 RMK A01 T01171099  RH  021%=      5-min Rain = 0
KPG1 121604Z 03016KT 12/M10 A3036 RMK A01 T01171097  RH  021%=      5-min Rain = 0
KPG1 121605Z 03014KT 12/M10 A3036 RMK A01 T01171096  RH  022%=      5-min Rain = 0
KPG1 121606Z 04015KT 12/M10 A3036 RMK A01 T01181095  RH  022%=      5-min Rain = 0
KPG1 121607Z 04013G18KT 12/M10 A3036 RMK A01 T01171097  RH  021%=      5-min Rain = 0
KPG1 121608Z 04012KT 12/M10 A3036 RMK A01 T01181097  RH  021%=      5-min Rain = 0
KPG1 121609Z 04012KT 12/M10 A3036 RMK A01 T01181098  RH  021%=      5-min Rain = 0
KPG1 121610Z 05011KT 12/M10 A3036 RMK A01 T01171099  RH  021%=      5-min Rain = 0
KPG1 121611Z 05011KT 12/M10 A3036 RMK A01 T01171098  RH  021%=      5-min Rain = 0
KPG1 121612Z 04012KT 12/M10 A3036 RMK A01 T01171097  RH  021%=      5-min Rain = 0
KPG1 121613Z 03015KT 12/M10 A3035 RMK A01 T01181096  RH  021%=      5-min Rain = 0
KPG1 121614Z 03015KT 12/M10 A3035 RMK A01 T01181096  RH  021%=      5-min Rain = 0
KPG1 121615Z 06013KT 12/M10 A3035 RMK A01 T01181097  RH  021%=      5-min Rain = 0
KPG1 121616Z 06013G18KT 12/M10 A3035 RMK A01 T01191095  RH  021%=      5-min Rain = 0
KPG1 121617Z 05012KT 12/M10 A3035 RMK A01 T01201096  RH  021%=      5-min Rain = 0
KPG1 121618Z 04012KT 12/M10 A3035 RMK A01 T01211095  RH  021%=      5-min Rain = 0
KPG1 121619Z 04012KT 12/M10 A3035 RMK A01 T01211095  RH  021%=      5-min Rain = 0
KPG1 121620Z 05013KT 12/M09 A3035 RMK A01 T01201094  RH  021%=      5-min Rain = 0
KPG1 121621Z 06013KT 12/M09 A3035 RMK A01 T01211094  RH  021%=      5-min Rain = 0
KPG1 121622Z 06013KT 12/M10 A3035 RMK A01 T01211095  RH  021%=      5-min Rain = 0
KPG1 121623Z 05012KT 12/M10 A3035 RMK A01 T01191097  RH  021%=      5-min Rain = 0
KPG1 121624Z 05011KT 12/M10 A3035 RMK A01 T01171097  RH  021%=      5-min Rain = 0
KPG1 121625Z 03012KT 12/M09 A3035 RMK A01 T01171094  RH  022%=      5-min Rain = 0
KPG1 121626Z 03014G19KT 12/M09 A3035 RMK A01 T01191093  RH  022%=      5-min Rain = 0
KPG1 121627Z 06011KT 12/M09 A3035 RMK A01 T01191094  RH  022%=      5-min Rain = 0
KPG1 121628Z 04012KT 12/M09 A3035 RMK A01 T01201093  RH  022%=      5-min Rain = 0
KPG1 121629Z 03012KT 12/M09 A3035 RMK A01 T01201094  RH  021%=      5-min Rain = 0
KPG1 121630Z 04013KT 12/M10 A3035 RMK A01 T01201095  RH  021%=      5-min Rain = 0
KPG1 121631Z 04014KT 12/M10 A3035 RMK A01 T01191095  RH  021%=      5-min Rain = 0
KPG1 121632Z 04011KT 12/M09 A3035 RMK A01 T01181094  RH  022%=      5-min Rain = 0
KPG1 121633Z 04009KT 12/M09 A3035 RMK A01 T01181094  RH  022%=      5-min Rain = 0
KPG1 121634Z 04011KT 12/M09 A3035 RMK A01 T01191093  RH  022%=      5-min Rain = 0
KPG1 121635Z 04010KT 12/M09 A3035 RMK A01 T01191093  RH  022%=      5-min Rain = 0
KPG1 121636Z 05009KT 12/M09 A3035 RMK A01 T01201092  RH  022%=      5-min Rain = 0
KPG1 121637Z 04012G18KT 12/M09 A3035 RMK A01 T01201092  RH  022%=      5-min Rain = 0
KPG1 121638Z 04017KT 12/M09 A3035 RMK A01 T01191093  RH  022%=      5-min Rain = 0
KPG1 121639Z 04017KT 12/M09 A3035 RMK A01 T01181094  RH  022%=      5-min Rain = 0
KPG1 121640Z 04012KT 12/M09 A3035 RMK A01 T01171094  RH  022%=      5-min Rain = 0
KPG1 121641Z 05012KT 12/M09 A3035 RMK A01 T01191093  RH  022%=      5-min Rain = 0
KPG1 121642Z 05010G15KT 12/M09 A3035 RMK A01 T01221092  RH  021%=      5-min Rain = 0
KPG1 121643Z 05011KT 12/M09 A3035 RMK A01 T01231092  RH  021%=      5-min Rain = 0
KPG1 121644Z 06013KT 13/M09 A3035 RMK A01 T01251091  RH  021%=      5-min Rain = 0
KPG1 121645Z 06013KT 13/M09 A3035 RMK A01 T01251092  RH  021%=      5-min Rain = 0
KPG1 121646Z 07014KT 12/M09 A3035 RMK A01 T01241093  RH  021%=      5-min Rain = 0
KPG1 121647Z 06012KT 12/M09 A3035 RMK A01 T01241094  RH  021%=      5-min Rain = 0
KPG1 121648Z 06014KT 12/M09 A3035 RMK A01 T01231093  RH  021%=      5-min Rain = 0
KPG1 121649Z 06013KT 12/M09 A3035 RMK A01 T01221093  RH  021%=      5-min Rain = 0
KPG1 121650Z 05012KT 12/M09 A3035 RMK A01 T01211092  RH  022%=      5-min Rain = 0
KPG1 121651Z 04011KT 12/M09 A3034 RMK A01 T01241090  RH  022%=      5-min Rain = 0
KPG1 121652Z 06014KT 12/M09 A3034 RMK A01 T01241090  RH  021%=      5-min Rain = 0
KPG1 121653Z 06013KT 13/M09 A3034 RMK A01 T01251090  RH  021%=      5-min Rain = 0
KPG1 121654Z 04014KT 13/M09 A3034 RMK A01 T01261090  RH  021%=      5-min Rain = 0
KPG1 121655Z 03012KT 13/M09 A3034 RMK A01 T01261089  RH  022%=      5-min Rain = 0
KPG1 121656Z 05013KT 13/M09 A3034 RMK A01 T01251089  RH  022%=      5-min Rain = 0
KPG1 121657Z 06013G18KT 13/M09 A3034 RMK A01 T01251088  RH  022%=      5-min Rain = 0
KPG1 121658Z 07018KT 13/M09 A3034 RMK A01 T01261088  RH  022%=      5-min Rain = 0
KPG1 121659Z 06019KT 13/M09 A3034 RMK A01 T01251091  RH  021%=      5-min Rain = 0
KPG1 121700Z 07015KT 12/M09 A3034 RMK A01 T01221093  RH  021%=      5-min Rain = 0
KPG1 121701Z 05015KT 12/M09 A3034 RMK A01 T01221092  RH  022%=      5-min Rain = 0
KPG1 121702Z 04011G16KT 12/M09 A3034 RMK A01 T01231091  RH  022%=      5-min Rain = 0
KPG1 121703Z 03014KT 12/M09 A3034 RMK A01 T01241092  RH  021%=      5-min Rain = 0
KPG1 121704Z 02011G16KT 12/M09 A3034 RMK A01 T01231092  RH  021%=      5-min Rain = 0
KPG1 121705Z 03015KT 12/M09 A3034 RMK A01 T01231092  RH  021%=      5-min Rain = 0
KPG1 121706Z 05012KT 13/M09 A3034 RMK A01 T01251089  RH  022%=      5-min Rain = 0
KPG1 121707Z 06013KT 13/M09 A3034 RMK A01 T01271088  RH  021%=      5-min Rain = 0
KPG1 121708Z 02014KT 13/M09 A3034 RMK A01 T01271089  RH  021%=      5-min Rain = 0
KPG1 121709Z 03012KT 13/M09 A3034 RMK A01 T01271090  RH  021%=      5-min Rain = 0
KPG1 121710Z 04013KT 13/M09 A3034 RMK A01 T01271089  RH  021%=      5-min Rain = 0
KPG1 121711Z 03015KT 13/M09 A3034 RMK A01 T01261090  RH  021%=      5-min Rain = 0
KPG1 121712Z 04018KT 13/M09 A3034 RMK A01 T01251092  RH  021%=      5-min Rain = 0
KPG1 121713Z 03015KT 13/M09 A3034 RMK A01 T01251093  RH  021%=      5-min Rain = 0
KPG1 121714Z 04015KT 12/M09 A3034 RMK A01 T01241093  RH  021%=      5-min Rain = 0
KPG1 121715Z 04012G17KT 13/M09 A3034 RMK A01 T01251093  RH  021%=      5-min Rain = 0
KPG1 121716Z 04014KT 13/M09 A3034 RMK A01 T01271090  RH  021%=      5-min Rain = 0
KPG1 121717Z 05011KT 13/M09 A3034 RMK A01 T01291088  RH  021%=      5-min Rain = 0
KPG1 121718Z 06011KT 13/M09 A3034 RMK A01 T01291089  RH  021%=      5-min Rain = 0
KPG1 121719Z 07015KT 13/M09 A3034 RMK A01 T01281092  RH  021%=      5-min Rain = 0
KPG1 121720Z 07014KT 13/M10 A3034 RMK A01 T01251095  RH  021%=      5-min Rain = 0
KPG1 121721Z 03014KT 12/M09 A3034 RMK A01 T01241094  RH  021%=      5-min Rain = 0
KPG1 121722Z 04016G21KT 13/M09 A3034 RMK A01 T01251094  RH  021%=      5-min Rain = 0
KPG1 121723Z 03015KT 13/M09 A3034 RMK A01 T01251094  RH  021%=      5-min Rain = 0
KPG1 121724Z 04014KT 12/M10 A3034 RMK A01 T01241095  RH  021%=      5-min Rain = 0
KPG1 121725Z 06012KT 12/M09 A3034 RMK A01 T01231094  RH  021%=      5-min Rain = 0
KPG1 121726Z 05010KT 12/M10 A3034 RMK A01 T01221095  RH  021%=      5-min Rain = 0
KPG1 121727Z 04011KT 12/M10 A3033 RMK A01 T01231095  RH  021%=      5-min Rain = 0
KPG1 121728Z 04013KT 12/M10 A3033 RMK A01 T01231095  RH  021%=      5-min Rain = 0
KPG1 121729Z 04012KT 13/M09 A3033 RMK A01 T01251092  RH  021%=      5-min Rain = 0
KPG1 121730Z 04011KT 13/M09 A3033 RMK A01 T01271092  RH  021%=      5-min Rain = 0
KPG1 121731Z 04012KT 13/M09 A3033 RMK A01 T01271094  RH  020%=      5-min Rain = 0
KPG1 121732Z 04012KT 13/M10 A3033 RMK A01 T01281099  RH  020%=      5-min Rain = 0
KPG1 121733Z 03011KT 13/M10 A3033 RMK A01 T01261099  RH  020%=      5-min Rain = 0
KPG1 121734Z 04014KT 13/M10 A3033 RMK A01 T01261100  RH  020%=      5-min Rain = 0
KPG1 121735Z 05013KT 13/M10 A3033 RMK A01 T01261099  RH  020%=      5-min Rain = 0
KPG1 121736Z 06012KT 13/M10 A3033 RMK A01 T01271098  RH  020%=      5-min Rain = 0
KPG1 121737Z 06013KT 13/M10 A3033 RMK A01 T01271098  RH  020%=      5-min Rain = 0
KPG1 121738Z 07016KT 13/M10 A3033 RMK A01 T01271100  RH  019%=      5-min Rain = 0
KPG1 121739Z 06016KT 13/M10 A3033 RMK A01 T01251102  RH  019%=      5-min Rain = 0
KPG1 121740Z 06013KT 12/M10 A3033 RMK A01 T01231103  RH  020%=      5-min Rain = 0
KPG1 121741Z 05014KT 12/M10 A3033 RMK A01 T01221103  RH  020%=      5-min Rain = 0
KPG1 121742Z 05012KT 12/M10 A3033 RMK A01 T01211101  RH  020%=      5-min Rain = 0
KPG1 121743Z 06013KT 12/M10 A3033 RMK A01 T01221098  RH  020%=      5-min Rain = 0
KPG1 121744Z 06012KT 12/M10 A3033 RMK A01 T01231096  RH  021%=      5-min Rain = 0
KPG1 121745Z 06014KT 13/M09 A3033 RMK A01 T01251094  RH  021%=      5-min Rain = 0
KPG1 121746Z 06015KT 12/M09 A3033 RMK A01 T01241094  RH  021%=      5-min Rain = 0
KPG1 121747Z 06013KT 12/M09 A3033 RMK A01 T01221094  RH  021%=      5-min Rain = 0
KPG1 121748Z 04014KT 12/M09 A3033 RMK A01 T01221093  RH  021%=      5-min Rain = 0
KPG1 121749Z 04009KT 12/M09 A3033 RMK A01 T01231090  RH  022%=      5-min Rain = 0
KPG1 121750Z 05010KT 13/M09 A3033 RMK A01 T01251088  RH  022%=      5-min Rain = 0
KPG1 121751Z 04011G16KT 13/M09 A3033 RMK A01 T01261089  RH  021%=      5-min Rain = 0
KPG1 121752Z 06010KT 13/M09 A3033 RMK A01 T01261089  RH  021%=      5-min Rain = 0
KPG1 121753Z 05011KT 13/M09 A3033 RMK A01 T01261089  RH  021%=      5-min Rain = 0
KPG1 121754Z 06014KT 13/M09 A3032 RMK A01 T01251089  RH  022%=      5-min Rain = 0
KPG1 121755Z 07014KT 12/M09 A3032 RMK A01 T01241087  RH  022%=      5-min Rain = 0
KPG1 121756Z 07014KT 12/M09 A3032 RMK A01 T01241086  RH  022%=      5-min Rain = 0
KPG1 121757Z 06011KT 13/M09 A3032 RMK A01 T01251087  RH  022%=      5-min Rain = 0
KPG1 121758Z 05011KT 13/M09 A3032 RMK A01 T01261086  RH  022%=      5-min Rain = 0
KPG1 121759Z 05012G17KT 13/M09 A3032 RMK A01 T01261088  RH  022%=      5-min Rain = 0
KPG1 121800Z 03014KT 13/M09 A3032 RMK A01 T01271087  RH  022%=      5-min Rain = 0
KPG1 121801Z 03017KT 13/M09 A3032 RMK A01 T01261087  RH  022%=      5-min Rain = 0
KPG1 121802Z 03017KT 13/M09 A3032 RMK A01 T01251087  RH  022%=      5-min Rain = 0
KPG1 121803Z 03018G23KT 12/M09 A3032 RMK A01 T01241087  RH  022%=      5-min Rain = 0
KPG1 121804Z 04015KT 12/M09 A3032 RMK A01 T01241087  RH  022%=      5-min Rain = 0
KPG1 121805Z 06014G19KT 13/M09 A3032 RMK A01 T01251086  RH  022%=      5-min Rain = 0
KPG1 121806Z 07014KT 13/M09 A3032 RMK A01 T01251086  RH  022%=      5-min Rain = 0
KPG1 121807Z 04011KT 13/M09 A3032 RMK A01 T01251085  RH  022%=      5-min Rain = 0
KPG1 121808Z 04011KT 13/M08 A3032 RMK A01 T01271084  RH  022%=      5-min Rain = 0
KPG1 121809Z 06011KT 13/M08 A3032 RMK A01 T01271084  RH  022%=      5-min Rain = 0
KPG1 121810Z 07012KT 13/M09 A3032 RMK A01 T01261085  RH  022%=      5-min Rain = 0
KPG1 121811Z 05013KT 13/M08 A3031 RMK A01 T01261084  RH  022%=      5-min Rain = 0
KPG1 121812Z 05013KT 13/M08 A3031 RMK A01 T01261083  RH  023%=      5-min Rain = 0
KPG1 121813Z 06011KT 13/M08 A3031 RMK A01 T01281081  RH  022%=      5-min Rain = 0
KPG1 121814Z 04011KT 13/M08 A3031 RMK A01 T01311080  RH  022%=      5-min Rain = 0
KPG1 121815Z 02013G19KT 13/M08 A3031 RMK A01 T01331081  RH  022%=      5-min Rain = 0
KPG1 121816Z 02013KT 13/M08 A3031 RMK A01 T01341084  RH  021%=      5-min Rain = 0
KPG1 121817Z 03013G18KT 13/M08 A303 RMK A01 T01331084  RH  021%=      5-min Rain = 0
KPG1 121818Z 02016KT 13/M08 A303 RMK A01 T01341083  RH  021%=      5-min Rain = 0
KPG1 121819Z 02017KT 13/M08 A303 RMK A01 T01331083  RH  021%=      5-min Rain = 0
KPG1 121820Z 03016KT 14/M08 A303 RMK A01 T01351081  RH  022%=      5-min Rain = 0
KPG1 121821Z 05013KT 14/M08 A303 RMK A01 T01381078  RH  022%=      5-min Rain = 0
KPG1 121822Z 05012KT 14/M08 A303 RMK A01 T01431077  RH  021%=      5-min Rain = 0
KPG1 121823Z 03014KT 15/M08 A303 RMK A01 T01451078  RH  021%=      5-min Rain = 0
KPG1 121824Z 03012KT 14/M08 A303 RMK A01 T01441081  RH  020%=      5-min Rain = 0
KPG1 121825Z 02012KT 14/M08 A303 RMK A01 T01421081  RH  021%=      5-min Rain = 0
KPG1 121826Z 04015KT 14/M08 A303 RMK A01 T01431081  RH  020%=      5-min Rain = 0
KPG1 121827Z 04015G22KT 14/M08 A3029 RMK A01 T01421081  RH  021%=      5-min Rain = 0
KPG1 121828Z 04014KT 14/M08 A3029 RMK A01 T01381083  RH  021%=      5-min Rain = 0
KPG1 121829Z 03015G20KT 14/M08 A3029 RMK A01 T01361082  RH  021%=      5-min Rain = 0
KPG1 121830Z 03013KT 14/M08 A3029 RMK A01 T01381081  RH  021%=      5-min Rain = 0
KPG1 121831Z 04015KT 14/M08 A3029 RMK A01 T01391081  RH  021%=      5-min Rain = 0
KPG1 121832Z 06011KT 14/M08 A3029 RMK A01 T01411080  RH  021%=      5-min Rain = 0
KPG1 121833Z 05009KT 15/M08 A3029 RMK A01 T01451077  RH  021%=      5-min Rain = 0
KPG1 121834Z 07016KT 15/M08 A3029 RMK A01 T01461078  RH  020%=      5-min Rain = 0
KPG1 121835Z 07016KT 14/M08 A3029 RMK A01 T01421081  RH  021%=      5-min Rain = 0
KPG1 121836Z 05014KT 14/M08 A3029 RMK A01 T01401079  RH  021%=      5-min Rain = 0
KPG1 121837Z 02012G19KT 14/M08 A3029 RMK A01 T01401080  RH  021%=      5-min Rain = 0
KPG1 121838Z 06014KT 14/M08 A3029 RMK A01 T01391081  RH  021%=      5-min Rain = 0
KPG1 121839Z 06011KT 14/M08 A3029 RMK A01 T01371082  RH  021%=      5-min Rain = 0
KPG1 121840Z 04011G20KT 14/M08 A3029 RMK A01 T01371080  RH  021%=      5-min Rain = 0
KPG1 121841Z 04015G20KT 14/M08 A3029 RMK A01 T01441079  RH  021%=      5-min Rain = 0
KPG1 121842Z 04016KT 14/M09 A3029 RMK A01 T01441085  RH  020%=      5-min Rain = 0
KPG1 121843Z 05011KT 14/M09 A3029 RMK A01 T01421086  RH  020%=      5-min Rain = 0
KPG1 121844Z 06011KT 15/M08 A3029 RMK A01 T01471081  RH  020%=      5-min Rain = 0
KPG1 121845Z 05010KT 15/M09 A3029 RMK A01 T01501086  RH  019%=      5-min Rain = 0
KPG1 121846Z 05010KT 14/M09 A3029 RMK A01 T01441089  RH  019%=      5-min Rain = 0
KPG1 121847Z 04009KT 14/M09 A3029 RMK A01 T01411089  RH  019%=      5-min Rain = 0
KPG1 121848Z 03012KT 14/M09 A3028 RMK A01 T01401087  RH  020%=      5-min Rain = 0
KPG1 121849Z 06012KT 14/M09 A3028 RMK A01 T01401085  RH  020%=      5-min Rain = 0
KPG1 121850Z 07011G16KT 14/M08 A3028 RMK A01 T01411084  RH  020%=      5-min Rain = 0
KPG1 121851Z 05013KT 14/M08 A3028 RMK A01 T01411084  RH  020%=      5-min Rain = 0
KPG1 121852Z 07011KT 14/M09 A3028 RMK A01 T01401086  RH  020%=      5-min Rain = 0
KPG1 121853Z 07014KT 14/M09 A3028 RMK A01 T01401085  RH  020%=      5-min Rain = 0
KPG1 121854Z 07011KT 14/M09 A3028 RMK A01 T01391087  RH  020%=      5-min Rain = 0
KPG1 121855Z 07012KT 14/M09 A3028 RMK A01 T01371088  RH  020%=      5-min Rain = 0
KPG1 121856Z 05009KT 14/M09 A3028 RMK A01 T01361087  RH  020%=      5-min Rain = 0
KPG1 121857Z 04009KT 14/M09 A3028 RMK A01 T01371086  RH  021%=      5-min Rain = 0
KPG1 121858Z 05010KT 14/M08 A3028 RMK A01 T01391084  RH  020%=      5-min Rain = 0
KPG1 121859Z 04010KT 14/M08 A3028 RMK A01 T01441082  RH  020%=      5-min Rain = 0
KPG1 121900Z 03009KT 15/M08 A3028 RMK A01 T01451084  RH  020%=      5-min Rain = 0
KPG1 121901Z 04011KT 15/M09 A3028 RMK A01 T01451085  RH  020%=      5-min Rain = 0
KPG1 121902Z 07014KT 15/M09 A3028 RMK A01 T01451086  RH  019%=      5-min Rain = 0
KPG1 121903Z 06011KT 14/M09 A3028 RMK A01 T01431090  RH  019%=      5-min Rain = 0
KPG1 121904Z 07009KT 14/M09 A3028 RMK A01 T01391090  RH  019%=      5-min Rain = 0
KPG1 121905Z 07008KT 14/M09 A3027 RMK A01 T01401088  RH  020%=      5-min Rain = 0
KPG1 121906Z 05011KT 14/M09 A3027 RMK A01 T01401087  RH  020%=      5-min Rain = 0
KPG1 121907Z 02014KT 14/M09 A3027 RMK A01 T01411085  RH  020%=      5-min Rain = 0
KPG1 121908Z 03012KT 14/M09 A3027 RMK A01 T01421086  RH  020%=      5-min Rain = 0
KPG1 121909Z 04010G15KT 14/M09 A3027 RMK A01 T01411088  RH  020%=      5-min Rain = 0
KPG1 121910Z 06014KT 14/M09 A3027 RMK A01 T01411088  RH  020%=      5-min Rain = 0
KPG1 121911Z 08013KT 14/M09 A3027 RMK A01 T01401088  RH  020%=      5-min Rain = 0
KPG1 121912Z 07011KT 14/M09 A3027 RMK A01 T01411088  RH  020%=      5-min Rain = 0
KPG1 121913Z 06012KT 14/M09 A3027 RMK A01 T01431088  RH  019%=      5-min Rain = 0
KPG1 121914Z 06011KT 14/M09 A3027 RMK A01 T01431088  RH  019%=      5-min Rain = 0
KPG1 121915Z 06012KT 14/M09 A3027 RMK A01 T01431088  RH  019%=      5-min Rain = 0
KPG1 121916Z 06013KT 15/M09 A3027 RMK A01 T01451088  RH  019%=      5-min Rain = 0
KPG1 121917Z 07011KT 14/M09 A3027 RMK A01 T01431090  RH  019%=      5-min Rain = 0
KPG1 121918Z 04010KT 14/M09 A3027 RMK A01 T01431088  RH  019%=      5-min Rain = 0
KPG1 121919Z 05010KT 15/M09 A3027 RMK A01 T01481086  RH  019%=      5-min Rain = 0
KPG1 121920Z 06012KT 15/M09 A3027 RMK A01 T01491088  RH  019%=      5-min Rain = 0
KPG1 121921Z 04010KT 15/M09 A3027 RMK A01 T01471089  RH  019%=      5-min Rain = 0
KPG1 121922Z 03014KT 15/M09 A3026 RMK A01 T01481091  RH  018%=      5-min Rain = 0
KPG1 121923Z 03014KT 15/M09 A3026 RMK A01 T01501093  RH  018%=      5-min Rain = 0
KPG1 121924Z 03013G18KT 15/M09 A3026 RMK A01 T01481094  RH  018%=      5-min Rain = 0
KPG1 121925Z 03014G19KT 15/M09 A3026 RMK A01 T01491093  RH  018%=      5-min Rain = 0
KPG1 121926Z 04014KT 15/M09 A3026 RMK A01 T01491094  RH  018%=      5-min Rain = 0
KPG1 121927Z 03012KT 15/M09 A3026 RMK A01 T01481092  RH  018%=      5-min Rain = 0
KPG1 121928Z 05011G16KT 15/M09 A3026 RMK A01 T01481093  RH  018%=      5-min Rain = 0
KPG1 121929Z 04012KT 15/M09 A3026 RMK A01 T01471094  RH  018%=      5-min Rain = 0
KPG1 121930Z 03012G18KT 15/M09 A3026 RMK A01 T01481093  RH  018%=      5-min Rain = 0
KPG1 121931Z 03014KT 15/M09 A3026 RMK A01 T01491094  RH  018%=      5-min Rain = 0
KPG1 121932Z 03013G18KT 15/M09 A3026 RMK A01 T01481094  RH  018%=      5-min Rain = 0
KPG1 121933Z 03012KT 15/M09 A3026 RMK A01 T01471094  RH  018%=      5-min Rain = 0
KPG1 121934Z 02013KT 15/M09 A3026 RMK A01 T01481093  RH  018%=      5-min Rain = 0
KPG1 121935Z 02015KT 15/M09 A3026 RMK A01 T01481091  RH  018%=      5-min Rain = 0
KPG1 121936Z 02014KT 15/M09 A3026 RMK A01 T01471090  RH  019%=      5-min Rain = 0
KPG1 121937Z 03014G19KT 15/M09 A3026 RMK A01 T01491088  RH  019%=      5-min Rain = 0
KPG1 121938Z 03012G17KT 15/M09 A3026 RMK A01 T01491089  RH  019%=      5-min Rain = 0
KPG1 121939Z 02011KT 15/M09 A3025 RMK A01 T01511089  RH  018%=      5-min Rain = 0
KPG1 121940Z 03015KT 15/M09 A3025 RMK A01 T01501091  RH  018%=      5-min Rain = 0
KPG1 121941Z 03013G18KT 15/M09 A3025 RMK A01 T01521090  RH  018%=      5-min Rain = 0
KPG1 121942Z 02010G15KT 15/M09 A3025 RMK A01 T01521094  RH  017%=      5-min Rain = 0
KPG1 121943Z 04009G14KT 15/M09 A3025 RMK A01 T01481094  RH  018%=      5-min Rain = 0
KPG1 121944Z 06010KT 15/M09 A3025 RMK A01 T01481092  RH  018%=      5-min Rain = 0
KPG1 121945Z 06012KT 15/M09 A3025 RMK A01 T01501089  RH  018%=      5-min Rain = 0
KPG1 121946Z 05012KT 15/M09 A3025 RMK A01 T01531088  RH  018%=      5-min Rain = 0
KPG1 121947Z 04013G19KT 15/M09 A3025 RMK A01 T01541088  RH  018%=      5-min Rain = 0
KPG1 121948Z 04012KT 16/M09 A3025 RMK A01 T01571087  RH  018%=      5-min Rain = 0
KPG1 121949Z 03014KT 16/M09 A3025 RMK A01 T01581087  RH  018%=      5-min Rain = 0
KPG1 121950Z 03011KT 16/M09 A3025 RMK A01 T01561089  RH  018%=      5-min Rain = 0
KPG1 121951Z 03015KT 15/M09 A3025 RMK A01 T01541088  RH  018%=      5-min Rain = 0
KPG1 121952Z 02010KT 16/M09 A3024 RMK A01 T01561087  RH  018%=      5-min Rain = 0
KPG1 121953Z 03013G18KT 16/M09 A3024 RMK A01 T01551088  RH  018%=      5-min Rain = 0
KPG1 121954Z 06012G17KT 15/M09 A3024 RMK A01 T01541089  RH  018%=      5-min Rain = 0
KPG1 121955Z 03013KT 15/M09 A3024 RMK A01 T01541088  RH  018%=      5-min Rain = 0
KPG1 121956Z 04013KT 16/M09 A3024 RMK A01 T01551088  RH  018%=      5-min Rain = 0
KPG1 121957Z 04012G18KT 15/M09 A3024 RMK A01 T01541088  RH  018%=      5-min Rain = 0
KPG1 121958Z 07013G19KT 16/M09 A3024 RMK A01 T01551086  RH  018%=      5-min Rain = 0
KPG1 121959Z 06013G19KT 16/M09 A3024 RMK A01 T01561087  RH  018%=      5-min Rain = 0
KPG1 122000Z 06008KT 15/M09 A3024 RMK A01 T01511090  RH  018%=      5-min Rain = 0
KPG1 122001Z 05010KT 15/M09 A3024 RMK A01 T01511088  RH  018%=      5-min Rain = 0
KPG1 122002Z 03015KT 16/M09 A3024 RMK A01 T01561085  RH  018%=      5-min Rain = 0
KPG1 122003Z 03013KT 16/M09 A3024 RMK A01 T01581089  RH  017%=      5-min Rain = 0
KPG1 122004Z 03013KT 16/M09 A3024 RMK A01 T01571089  RH  017%=      5-min Rain = 0
KPG1 122005Z 03013KT 15/M09 A3024 RMK A01 T01541089  RH  018%=      5-min Rain = 0
KPG1 122006Z 04011KT 15/M09 A3024 RMK A01 T01531088  RH  018%=      5-min Rain = 0
KPG1 122007Z 06009KT 15/M09 A3024 RMK A01 T01531087  RH  018%=      5-min Rain = 0
KPG1 122008Z 05010KT 15/M09 A3024 RMK A01 T01531087  RH  018%=      5-min Rain = 0
KPG1 122009Z 06011KT 15/M09 A3024 RMK A01 T01521088  RH  018%=      5-min Rain = 0
KPG1 122010Z 07011G16KT 15/M09 A3024 RMK A01 T01521087  RH  018%=      5-min Rain = 0
KPG1 122011Z 04012KT 15/M09 A3024 RMK A01 T01541089  RH  018%=      5-min Rain = 0
KPG1 122012Z 03018KT 15/M09 A3024 RMK A01 T01531093  RH  017%=      5-min Rain = 0
KPG1 122013Z 03016KT 15/M09 A3024 RMK A01 T01531093  RH  018%=      5-min Rain = 0
KPG1 122014Z 04015KT 15/M09 A3024 RMK A01 T01511093  RH  018%=      5-min Rain = 0
KPG1 122015Z 02012KT 15/M09 A3024 RMK A01 T01511093  RH  018%=      5-min Rain = 0
KPG1 122016Z 03011KT 15/M09 A3024 RMK A01 T01491093  RH  018%=      5-min Rain = 0
KPG1 122017Z 03012KT 15/M09 A3024 RMK A01 T01521090  RH  018%=      5-min Rain = 0
KPG1 122018Z 03012KT 15/M09 A3024 RMK A01 T01541090  RH  018%=      5-min Rain = 0
KPG1 122019Z 03011KT 15/M09 A3024 RMK A01 T01511092  RH  018%=      5-min Rain = 0
KPG1 122020Z 03010KT 15/M09 A3024 RMK A01 T01511093  RH  018%=      5-min Rain = 0
KPG1 122021Z 07011KT 15/M09 A3024 RMK A01 T01521092  RH  018%=      5-min Rain = 0
KPG1 122022Z 05009KT 15/M09 A3024 RMK A01 T01531092  RH  018%=      5-min Rain = 0
KPG1 122023Z 06010KT 16/M09 A3024 RMK A01 T01561090  RH  018%=      5-min Rain = 0
KPG1 122024Z 04012KT 16/M09 A3024 RMK A01 T01571091  RH  017%=      5-min Rain = 0
KPG1 122025Z 03010KT 15/M09 A3024 RMK A01 T01541093  RH  017%=      5-min Rain = 0
KPG1 122026Z 03012KT 15/M09 A3024 RMK A01 T01511093  RH  018%=      5-min Rain = 0
KPG1 122027Z 03014KT 15/M09 A3024 RMK A01 T01521091  RH  018%=      5-min Rain = 0
KPG1 122028Z 03015KT 15/M09 A3024 RMK A01 T01511092  RH  018%=      5-min Rain = 0
KPG1 122029Z 02016KT 15/M09 A3024 RMK A01 T01501091  RH  018%=      5-min Rain = 0
KPG1 122030Z 03014KT 15/M09 A3023 RMK A01 T01501090  RH  018%=      5-min Rain = 0
KPG1 122031Z 04014KT 15/M09 A3023 RMK A01 T01511089  RH  018%=      5-min Rain = 0
KPG1 122032Z 03012KT 15/M09 A3023 RMK A01 T01511087  RH  018%=      5-min Rain = 0
KPG1 122033Z 03012KT 15/M09 A3023 RMK A01 T01511086  RH  019%=      5-min Rain = 0
KPG1 122034Z 03009KT 15/M09 A3023 RMK A01 T01511086  RH  019%=      5-min Rain = 0
KPG1 122035Z 04009KT 15/M09 A3023 RMK A01 T01511086  RH  019%=      5-min Rain = 0
KPG1 122036Z 07012KT 15/M09 A3023 RMK A01 T01501087  RH  019%=      5-min Rain = 0
KPG1 122037Z 07015KT 15/M09 A3023 RMK A01 T01511090  RH  018%=      5-min Rain = 0
KPG1 122038Z 06013KT 15/M09 A3023 RMK A01 T01491093  RH  018%=      5-min Rain = 0
KPG1 122039Z 05014KT 15/M09 A3023 RMK A01 T01481092  RH  018%=      5-min Rain = 0
KPG1 122040Z 04015KT 15/M09 A3023 RMK A01 T01491091  RH  018%=      5-min Rain = 0
KPG1 122041Z 04012G18KT 15/M09 A3023 RMK A01 T01501089  RH  018%=      5-min Rain = 0
KPG1 122042Z 04015KT 15/M09 A3023 RMK A01 T01501088  RH  018%=      5-min Rain = 0
KPG1 122043Z 04017KT 15/M09 A3023 RMK A01 T01491089  RH  018%=      5-min Rain = 0
KPG1 122044Z 04015KT 15/M09 A3023 RMK A01 T01491091  RH  018%=      5-min Rain = 0
KPG1 122045Z 04013KT 15/M09 A3023 RMK A01 T01491092  RH  018%=      5-min Rain = 0
KPG1 122046Z 04012KT 15/M09 A3023 RMK A01 T01501092  RH  018%=      5-min Rain = 0
KPG1 122047Z 02013KT 15/M09 A3023 RMK A01 T01501092  RH  018%=      5-min Rain = 0
KPG1 122048Z 04013KT 15/M09 A3022 RMK A01 T01491092  RH  018%=      5-min Rain = 0
KPG1 122049Z 04012G17KT 15/M09 A3022 RMK A01 T01491091  RH  018%=      5-min Rain = 0
KPG1 122050Z 04012G18KT 15/M09 A3022 RMK A01 T01501089  RH  018%=      5-min Rain = 0
KPG1 122051Z 04014KT 15/M09 A3022 RMK A01 T01521087  RH  018%=      5-min Rain = 0
KPG1 122052Z 03012KT 15/M09 A3022 RMK A01 T01521087  RH  018%=      5-min Rain = 0
KPG1 122053Z 05011G19KT 15/M09 A3021 RMK A01 T01541086  RH  018%=      5-min Rain = 0
KPG1 122054Z 06013KT 16/M09 A3021 RMK A01 T01551089  RH  018%=      5-min Rain = 0
KPG1 122055Z 06014KT 15/M09 A3021 RMK A01 T01521090  RH  018%=      5-min Rain = 0
KPG1 122056Z 07013KT 15/M09 A3022 RMK A01 T01521090  RH  018%=      5-min Rain = 0
KPG1 122057Z 07011KT 15/M09 A3021 RMK A01 T01501091  RH  018%=      5-min Rain = 0
KPG1 122058Z 04013KT 15/M09 A3021 RMK A01 T01501091  RH  018%=      5-min Rain = 0
KPG1 122059Z 04014KT 15/M09 A3021 RMK A01 T01501092  RH  018%=      5-min Rain = 0
KPG1 122100Z 04011KT 15/M09 A3021 RMK A01 T01501093  RH  018%=      5-min Rain = 0
KPG1 122101Z 03012G17KT 15/M09 A3021 RMK A01 T01521092  RH  018%=      5-min Rain = 0
KPG1 122102Z 02013KT 15/M09 A3021 RMK A01 T01521093  RH  017%=      5-min Rain = 0
KPG1 122103Z 04013KT 15/M09 A3021 RMK A01 T01541091  RH  018%=      5-min Rain = 0
KPG1 122104Z 07011KT 15/M09 A3021 RMK A01 T01541091  RH  018%=      5-min Rain = 0
KPG1 122105Z 06010KT 16/M09 A3022 RMK A01 T01551089  RH  018%=      5-min Rain = 0
KPG1 122106Z 06012KT 16/M09 A3022 RMK A01 T01581087  RH  018%=      5-min Rain = 0
KPG1 122107Z 06013KT 16/M09 A3022 RMK A01 T01571091  RH  017%=      5-min Rain = 0
KPG1 122108Z 05011G16KT 16/M09 A3022 RMK A01 T01571092  RH  017%=      5-min Rain = 0
KPG1 122109Z 06011KT 16/M10 A3022 RMK A01 T01561095  RH  017%=      5-min Rain = 0
KPG1 122110Z 05013G19KT 16/M09 A3022 RMK A01 T01571094  RH  017%=      5-min Rain = 0
KPG1 122111Z 06012G18KT 16/M10 A3022 RMK A01 T01551097  RH  017%=      5-min Rain = 0
KPG1 122112Z 06014KT 15/M10 A3022 RMK A01 T01541095  RH  017%=      5-min Rain = 0
KPG1 122113Z 07013KT 15/M09 A3021 RMK A01 T01541092  RH  017%=      5-min Rain = 0
KPG1 122114Z 07012KT 15/M09 A3021 RMK A01 T01531093  RH  018%=      5-min Rain = 0
KPG1 122115Z 06011KT 15/M09 A3021 RMK A01 T01541092  RH  017%=      5-min Rain = 0
KPG1 122116Z 05010KT 15/M09 A3021 RMK A01 T01541093  RH  017%=      5-min Rain = 0
KPG1 122117Z 06008KT 15/M09 A3021 RMK A01 T01531094  RH  017%=      5-min Rain = 0
KPG1 122118Z 08010KT 16/M09 A3021 RMK A01 T01551093  RH  017%=      5-min Rain = 0
KPG1 122119Z 04008KT 16/M09 A3021 RMK A01 T01551093  RH  017%=      5-min Rain = 0
KPG1 122120Z 06009KT 16/M09 A3021 RMK A01 T01551093  RH  017%=      5-min Rain = 0
KPG1 122121Z 07012KT 16/M09 A3021 RMK A01 T01561091  RH  017%=      5-min Rain = 0
KPG1 122122Z 07010KT 16/M09 A3021 RMK A01 T01571090  RH  017%=      5-min Rain = 0
KPG1 122123Z 06013G18KT 16/M09 A3021 RMK A01 T01561092  RH  017%=      5-min Rain = 0
KPG1 122124Z 07016KT 16/M09 A3021 RMK A01 T01551094  RH  017%=      5-min Rain = 0
KPG1 122125Z 06015KT 16/M10 A3021 RMK A01 T01561095  RH  017%=      5-min Rain = 0
KPG1 122126Z 07011KT 16/M10 A3021 RMK A01 T01551097  RH  017%=      5-min Rain = 0
KPG1 122127Z 07013KT 15/M10 A3021 RMK A01 T01541096  RH  017%=      5-min Rain = 0
KPG1 122128Z 06010KT 15/M10 A3021 RMK A01 T01541097  RH  017%=      5-min Rain = 0
KPG1 122129Z 05009KT 15/M10 A302 RMK A01 T01531096  RH  017%=      5-min Rain = 0
KPG1 122130Z 04012KT 16/M09 A302 RMK A01 T01571094  RH  017%=      5-min Rain = 0
KPG1 122131Z 06011KT 16/M10 A302 RMK A01 T01581097  RH  016%=      5-min Rain = 0
KPG1 122132Z 06011KT 16/M10 A302 RMK A01 T01581097  RH  016%=      5-min Rain = 0
KPG1 122133Z 05013KT 16/M10 A302 RMK A01 T01571097  RH  016%=      5-min Rain = 0
KPG1 122134Z 05009KT 15/M10 A302 RMK A01 T01541099  RH  016%=      5-min Rain = 0
KPG1 122135Z 05009KT 15/M10 A302 RMK A01 T01541098  RH  017%=      5-min Rain = 0
KPG1 122136Z 07010KT 16/M10 A302 RMK A01 T01551096  RH  017%=      5-min Rain = 0
KPG1 122137Z 07012KT 16/M10 A302 RMK A01 T01571096  RH  017%=      5-min Rain = 0
KPG1 122138Z 03008KT 16/M10 A302 RMK A01 T01581098  RH  016%=      5-min Rain = 0
KPG1 122139Z 04009G14KT 16/M10 A302 RMK A01 T01591097  RH  016%=      5-min Rain = 0
KPG1 122140Z 04012KT 16/M10 A302 RMK A01 T01601097  RH  016%=      5-min Rain = 0
KPG1 122141Z 03010KT 16/M10 A302 RMK A01 T01571098  RH  016%=      5-min Rain = 0
KPG1 122142Z 04011KT 16/M09 A302 RMK A01 T01611092  RH  017%=      5-min Rain = 0
KPG1 122143Z 04009KT 17/M09 A302 RMK A01 T01661090  RH  016%=      5-min Rain = 0
KPG1 122144Z 03011KT 17/M09 A302 RMK A01 T01691090  RH  016%=      5-min Rain = 0
KPG1 122145Z 03010KT 17/M09 A302 RMK A01 T01661093  RH  016%=      5-min Rain = 0
KPG1 122146Z 03010G15KT 16/M09 A302 RMK A01 T01641093  RH  016%=      5-min Rain = 0
KPG1 122147Z 05011G16KT 16/M09 A302 RMK A01 T01641092  RH  016%=      5-min Rain = 0
KPG1 122148Z 07013KT 16/M09 A302 RMK A01 T01631092  RH  017%=      5-min Rain = 0
KPG1 122149Z 07012KT 16/M09 A302 RMK A01 T01621089  RH  017%=      5-min Rain = 0
KPG1 122150Z 08011KT 16/M09 A3019 RMK A01 T01621088  RH  017%=      5-min Rain = 0
KPG1 122151Z 06011KT 16/M09 A3019 RMK A01 T01621087  RH  017%=      5-min Rain = 0
KPG1 122152Z 05012G17KT 16/M09 A3019 RMK A01 T01641085  RH  017%=      5-min Rain = 0
KPG1 122153Z 06013KT 17/M09 A3019 RMK A01 T01671086  RH  017%=      5-min Rain = 0
KPG1 122154Z 05014KT 17/M09 A3019 RMK A01 T01671086  RH  017%=      5-min Rain = 0
KPG1 122155Z 05011KT 17/M09 A3019 RMK A01 T01651088  RH  017%=      5-min Rain = 0
KPG1 122156Z 06009KT 16/M09 A3019 RMK A01 T01621090  RH  017%=      5-min Rain = 0
KPG1 122157Z 05009KT 16/M09 A3019 RMK A01 T01631088  RH  017%=      5-min Rain = 0
KPG1 122158Z 08009KT 17/M09 A3019 RMK A01 T01671089  RH  016%=      5-min Rain = 0
KPG1 122159Z 09010KT 17/M09 A3019 RMK A01 T01671094  RH  016%=      5-min Rain = 0
KPG1 122200Z 11011KT 17/M10 A3019 RMK A01 T01651096  RH  016%=      5-min Rain = 0
KPG1 122201Z 10010KT 16/M10 A3019 RMK A01 T01631098  RH  016%=      5-min Rain = 0
KPG1 122202Z 08012KT 16/M10 A3019 RMK A01 T01631098  RH  016%=      5-min Rain = 0
KPG1 122203Z 06014KT 16/M09 A3019 RMK A01 T01631094  RH  016%=      5-min Rain = 0
KPG1 122204Z 06014KT 16/M09 A3019 RMK A01 T01621092  RH  017%=      5-min Rain = 0
KPG1 122205Z 07014KT 16/M09 A3018 RMK A01 T01611092  RH  017%=      5-min Rain = 0
KPG1 122206Z 05013KT 16/M09 A3018 RMK A01 T01611091  RH  017%=      5-min Rain = 0
KPG1 122207Z 06011G16KT 16/M09 A3018 RMK A01 T01631091  RH  017%=      5-min Rain = 0
KPG1 122208Z 07013KT 16/M09 A3018 RMK A01 T01641090  RH  017%=      5-min Rain = 0
KPG1 122209Z 06015KT 16/M09 A3018 RMK A01 T01631090  RH  017%=      5-min Rain = 0
KPG1 122210Z 06014KT 16/M09 A3018 RMK A01 T01631090  RH  017%=      5-min Rain = 0
KPG1 122211Z 08012KT 16/M09 A3018 RMK A01 T01631089  RH  017%=      5-min Rain = 0
KPG1 122212Z 07008KT 16/M09 A3018 RMK A01 T01641088  RH  017%=      5-min Rain = 0
KPG1 122213Z 06011KT 16/M09 A3018 RMK A01 T01631089  RH  017%=      5-min Rain = 0
KPG1 122214Z 08009KT 16/M09 A3018 RMK A01 T01641092  RH  016%=      5-min Rain = 0
KPG1 122215Z 07010G15KT 17/M09 A3018 RMK A01 T01671090  RH  016%=      5-min Rain = 0
KPG1 122216Z 07013KT 17/M09 A3018 RMK A01 T01691093  RH  016%=      5-min Rain = 0
KPG1 122217Z 09011KT 17/M09 A3018 RMK A01 T01691094  RH  016%=      5-min Rain = 0
KPG1 122218Z 08010KT 17/M10 A3018 RMK A01 T01681095  RH  016%=      5-min Rain = 0
KPG1 122219Z 08009KT 17/M10 A3018 RMK A01 T01651096  RH  016%=      5-min Rain = 0
KPG1 122220Z 07014KT 16/M10 A3018 RMK A01 T01631095  RH  016%=      5-min Rain = 0
KPG1 122221Z 06011KT 16/M09 A3018 RMK A01 T01631092  RH  017%=      5-min Rain = 0
KPG1 122222Z 06011KT 16/M09 A3018 RMK A01 T01631091  RH  017%=      5-min Rain = 0
KPG1 122223Z 06015G20KT 16/M09 A3018 RMK A01 T01611090  RH  017%=      5-min Rain = 0
KPG1 122224Z 06014KT 16/M09 A3018 RMK A01 T01601089  RH  017%=      5-min Rain = 0
KPG1 122225Z 07013KT 16/M09 A3018 RMK A01 T01591089  RH  017%=      5-min Rain = 0
KPG1 122226Z 06015KT 16/M09 A3018 RMK A01 T01581089  RH  018%=      5-min Rain = 0
KPG1 122227Z 06011KT 16/M09 A3017 RMK A01 T01571090  RH  017%=      5-min Rain = 0
KPG1 122228Z 06013KT 16/M09 A3017 RMK A01 T01561089  RH  018%=      5-min Rain = 0
KPG1 122229Z 05011KT 16/M09 A3017 RMK A01 T01571089  RH  018%=      5-min Rain = 0
KPG1 122230Z 05012G18KT 16/M09 A3017 RMK A01 T01571089  RH  018%=      5-min Rain = 0
KPG1 122231Z 06014KT 16/M09 A3017 RMK A01 T01571088  RH  018%=      5-min Rain = 0
KPG1 122232Z 06013KT 16/M09 A3017 RMK A01 T01581088  RH  018%=      5-min Rain = 0
KPG1 122233Z 05014KT 16/M09 A3016 RMK A01 T01571089  RH  018%=      5-min Rain = 0
KPG1 122234Z 06010KT 16/M09 A3016 RMK A01 T01561088  RH  018%=      5-min Rain = 0
KPG1 122235Z 07014KT 16/M09 A3016 RMK A01 T01581087  RH  018%=      5-min Rain = 0
KPG1 122236Z 06012KT 16/M09 A3016 RMK A01 T01581090  RH  017%=      5-min Rain = 0
KPG1 122237Z 05011KT 16/M09 A3017 RMK A01 T01581091  RH  017%=      5-min Rain = 0
KPG1 122238Z 06011KT 16/M09 A3017 RMK A01 T01571091  RH  017%=      5-min Rain = 0
KPG1 122239Z 09011KT 16/M09 A3017 RMK A01 T01571091  RH  017%=      5-min Rain = 0
KPG1 122240Z 06010KT 16/M09 A3017 RMK A01 T01571091  RH  017%=      5-min Rain = 0
KPG1 122241Z 04011KT 16/M09 A3017 RMK A01 T01581091  RH  017%=      5-min Rain = 0
KPG1 122242Z 06008KT 16/M09 A3017 RMK A01 T01591090  RH  017%=      5-min Rain = 0
KPG1 122243Z 06012KT 16/M09 A3017 RMK A01 T01621090  RH  017%=      5-min Rain = 0
KPG1 122244Z 06015KT 16/M09 A3017 RMK A01 T01631089  RH  017%=      5-min Rain = 0
KPG1 122245Z 06014KT 16/M09 A3017 RMK A01 T01621088  RH  017%=      5-min Rain = 0
KPG1 122246Z 05013KT 16/M09 A3016 RMK A01 T01611088  RH  017%=      5-min Rain = 0
KPG1 122247Z 06013G18KT 16/M09 A3016 RMK A01 T01601087  RH  017%=      5-min Rain = 0
KPG1 122248Z 06016KT 16/M09 A3016 RMK A01 T01611087  RH  017%=      5-min Rain = 0
KPG1 122249Z 07016KT 16/M09 A3016 RMK A01 T01611088  RH  017%=      5-min Rain = 0
KPG1 122250Z 06016KT 16/M09 A3016 RMK A01 T01601088  RH  017%=      5-min Rain = 0
KPG1 122251Z 06015KT 16/M09 A3016 RMK A01 T01591088  RH  017%=      5-min Rain = 0
KPG1 122252Z 06012KT 16/M09 A3016 RMK A01 T01591087  RH  017%=      5-min Rain = 0
KPG1 122253Z 06013KT 16/M09 A3016 RMK A01 T01601087  RH  017%=      5-min Rain = 0
KPG1 122254Z 07013KT 16/M09 A3016 RMK A01 T01601088  RH  017%=      5-min Rain = 0
KPG1 122255Z 07012KT 16/M09 A3016 RMK A01 T01601088  RH  017%=      5-min Rain = 0
KPG1 122256Z 05010KT 16/M09 A3016 RMK A01 T01601088  RH  017%=      5-min Rain = 0
KPG1 122257Z 04008KT 16/M09 A3016 RMK A01 T01621086  RH  017%=      5-min Rain = 0
KPG1 122258Z 06012G18KT 16/M09 A3016 RMK A01 T01631086  RH  017%=      5-min Rain = 0
KPG1 122259Z 07014KT 16/M09 A3017 RMK A01 T01631087  RH  017%=      5-min Rain = 0
KPG1 122300Z 07013KT 16/M09 A3017 RMK A01 T01601089  RH  017%=      5-min Rain = 0
KPG1 122301Z 06012KT 16/M09 A3017 RMK A01 T01591089  RH  017%=      5-min Rain = 0
KPG1 122302Z 06012KT 16/M09 A3016 RMK A01 T01591088  RH  017%=      5-min Rain = 0
KPG1 122303Z 08009KT 16/M09 A3016 RMK A01 T01591088  RH  017%=      5-min Rain = 0
KPG1 122304Z 04009KT 16/M09 A3016 RMK A01 T01591088  RH  018%=      5-min Rain = 0
KPG1 122305Z 04012KT 16/M09 A3016 RMK A01 T01601087  RH  018%=      5-min Rain = 0
KPG1 122306Z 04011KT 16/M09 A3016 RMK A01 T01601087  RH  017%=      5-min Rain = 0
KPG1 122307Z 04011KT 16/M09 A3016 RMK A01 T01601087  RH  017%=      5-min Rain = 0
KPG1 122308Z 03013G18KT 16/M09 A3016 RMK A01 T01591087  RH  018%=      5-min Rain = 0
KPG1 122309Z 03013KT 16/M09 A3016 RMK A01 T01601087  RH  018%=      5-min Rain = 0
KPG1 122310Z 03015KT 16/M09 A3016 RMK A01 T01591088  RH  017%=      5-min Rain = 0
KPG1 122311Z 03012KT 16/M09 A3016 RMK A01 T01581089  RH  017%=      5-min Rain = 0
KPG1 122312Z 06013KT 16/M09 A3016 RMK A01 T01581088  RH  018%=      5-min Rain = 0
KPG1 122313Z 06015KT 16/M09 A3016 RMK A01 T01591088  RH  017%=      5-min Rain = 0
KPG1 122314Z 05010KT 16/M09 A3016 RMK A01 T01581089  RH  017%=      5-min Rain = 0
KPG1 122315Z 04009KT 16/M09 A3016 RMK A01 T01581088  RH  018%=      5-min Rain = 0
KPG1 122316Z 03010KT 16/M09 A3016 RMK A01 T01591087  RH  018%=      5-min Rain = 0
KPG1 122317Z 04010KT 16/M09 A3016 RMK A01 T01591086  RH  018%=      5-min Rain = 0
KPG1 122318Z 04011KT 16/M09 A3015 RMK A01 T01591086  RH  018%=      5-min Rain = 0
KPG1 122319Z 04012KT 16/M09 A3015 RMK A01 T01601086  RH  018%=      5-min Rain = 0
KPG1 122320Z 04012G18KT 16/M09 A3015 RMK A01 T01591086  RH  018%=      5-min Rain = 0
KPG1 122321Z 04012KT 16/M09 A3015 RMK A01 T01591086  RH  018%=      5-min Rain = 0
KPG1 122322Z 04012KT 16/M09 A3015 RMK A01 T01591088  RH  017%=      5-min Rain = 0
KPG1 122323Z 06013KT 16/M09 A3015 RMK A01 T01581089  RH  017%=      5-min Rain = 0
KPG1 122324Z 05010KT 16/M09 A3015 RMK A01 T01581088  RH  017%=      5-min Rain = 0
KPG1 122325Z 06012KT 16/M09 A3015 RMK A01 T01581088  RH  017%=      5-min Rain = 0
KPG1 122326Z 07014KT 16/M09 A3015 RMK A01 T01581089  RH  017%=      5-min Rain = 0
KPG1 122327Z 07013KT 16/M09 A3015 RMK A01 T01571089  RH  018%=      5-min Rain = 0
KPG1 122328Z 06011KT 16/M09 A3015 RMK A01 T01571089  RH  018%=      5-min Rain = 0
KPG1 122329Z 05009KT 16/M09 A3015 RMK A01 T01581088  RH  018%=      5-min Rain = 0
KPG1 122330Z 04010KT 16/M09 A3015 RMK A01 T01581087  RH  018%=      5-min Rain = 0
KPG1 122331Z 05009KT 16/M09 A3016 RMK A01 T01581087  RH  018%=      5-min Rain = 0
KPG1 122332Z 05010KT 16/M09 A3016 RMK A01 T01581087  RH  018%=      5-min Rain = 0
KPG1 122333Z 05009KT 16/M09 A3016 RMK A01 T01591087  RH  018%=      5-min Rain = 0
KPG1 122334Z 06008KT 16/M09 A3016 RMK A01 T01591087  RH  018%=      5-min Rain = 0
KPG1 122335Z 06010G15KT 16/M09 A3016 RMK A01 T01591087  RH  018%=      5-min Rain = 0
KPG1 122336Z 05010KT 16/M09 A3016 RMK A01 T01581087  RH  018%=      5-min Rain = 0
KPG1 122337Z 06010KT 16/M09 A3016 RMK A01 T01571087  RH  018%=      5-min Rain = 0
KPG1 122338Z 07012KT 16/M09 A3016 RMK A01 T01571086  RH  018%=      5-min Rain = 0
KPG1 122339Z 07012KT 16/M09 A3016 RMK A01 T01571087  RH  018%=      5-min Rain = 0
KPG1 122340Z 07011KT 16/M09 A3016 RMK A01 T01581088  RH  018%=      5-min Rain = 0
KPG1 122341Z 07011KT 16/M09 A3016 RMK A01 T01581087  RH  018%=      5-min Rain = 0
KPG1 122342Z 05008KT 16/M09 A3016 RMK A01 T01571087  RH  018%=      5-min Rain = 0
KPG1 122343Z 05009KT 16/M09 A3016 RMK A01 T01571087  RH  018%=      5-min Rain = 0
KPG1 122344Z 05010KT 16/M09 A3016 RMK A01 T01581087  RH  018%=      5-min Rain = 0
KPG1 122345Z 04011KT 16/M09 A3016 RMK A01 T01591087  RH  018%=      5-min Rain = 0
KPG1 122346Z 04012KT 16/M09 A3016 RMK A01 T01581088  RH  018%=      5-min Rain = 0
KPG1 122347Z 04011KT 16/M09 A3016 RMK A01 T01581089  RH  018%=      5-min Rain = 0
KPG1 122348Z 04013KT 16/M09 A3015 RMK A01 T01571089  RH  018%=      5-min Rain = 0
KPG1 122349Z 04011KT 16/M09 A3015 RMK A01 T01561088  RH  018%=      5-min Rain = 0
KPG1 122350Z 04011G16KT 16/M09 A3015 RMK A01 T01551087  RH  018%=      5-min Rain = 0
KPG1 122351Z 04011KT 16/M09 A3015 RMK A01 T01551087  RH  018%=      5-min Rain = 0
KPG1 122352Z 03013KT 16/M09 A3016 RMK A01 T01551087  RH  018%=      5-min Rain = 0
KPG1 122353Z 04011KT 16/M09 A3016 RMK A01 T01561087  RH  018%=      5-min Rain = 0
KPG1 122354Z 04011KT 16/M09 A3015 RMK A01 T01551088  RH  018%=      5-min Rain = 0
KPG1 122355Z 04011KT 16/M09 A3015 RMK A01 T01551088  RH  018%=      5-min Rain = 0
KPG1 122356Z 04010KT 16/M09 A3015 RMK A01 T01551088  RH  018%=      5-min Rain = 0
KPG1 122357Z 05010KT 16/M09 A3015 RMK A01 T01551087  RH  018%=      5-min Rain = 0
KPG1 122358Z 05009KT 16/M09 A3015 RMK A01 T01551088  RH  018%=      5-min Rain = 0
KPG1 122359Z 06009KT 16/M09 A3015 RMK A01 T01551088  RH  018%=      5-min Rain = 0
KPG1 130000Z 07011KT 16/M09 A3015 RMK A01 T01551089  RH  018%=      5-min Rain = 0
KPG1 130001Z 06011G16KT 16/M09 A3015 RMK A01 T01551089  RH  018%=      5-min Rain = 0
KPG1 130002Z 07013KT 16/M09 A3015 RMK A01 T01561089  RH  018%=      5-min Rain = 0
KPG1 130003Z 06013KT 16/M09 A3015 RMK A01 T01551089  RH  018%=      5-min Rain = 0
KPG1 130004Z 06013KT 15/M09 A3015 RMK A01 T01541090  RH  018%=      5-min Rain = 0
KPG1 130005Z 06014KT 15/M09 A3015 RMK A01 T01541090  RH  018%=      5-min Rain = 0
KPG1 130006Z 05012KT 15/M09 A3015 RMK A01 T01541090  RH  018%=      5-min Rain = 0
KPG1 130007Z 06012KT 15/M09 A3015 RMK A01 T01541090  RH  018%=      5-min Rain = 0
KPG1 130008Z 04009KT 15/M09 A3015 RMK A01 T01541089  RH  018%=      5-min Rain = 0
KPG1 130009Z 05012G17KT 15/M09 A3015 RMK A01 T01541089  RH  018%=      5-min Rain = 0
KPG1 130010Z 06011KT 15/M09 A3015 RMK A01 T01541090  RH  018%=      5-min Rain = 0
KPG1 130011Z 06011KT 15/M09 A3015 RMK A01 T01541089  RH  018%=      5-min Rain = 0
KPG1 130012Z 06013KT 15/M09 A3014 RMK A01 T01541089  RH  018%=      5-min Rain = 0
KPG1 130013Z 06009KT 15/M09 A3014 RMK A01 T01541089  RH  018%=      5-min Rain = 0
KPG1 130014Z 05011KT 16/M09 A3014 RMK A01 T01551089  RH  018%=      5-min Rain = 0
KPG1 130015Z 06010KT 15/M09 A3015 RMK A01 T01541089  RH  018%=      5-min Rain = 0
KPG1 130016Z 05010KT 15/M09 A3015 RMK A01 T01541089  RH  018%=      5-min Rain = 0
KPG1 130017Z 04011KT 15/M09 A3015 RMK A01 T01541089  RH  018%=      5-min Rain = 0
KPG1 130018Z 03013G18KT 15/M09 A3015 RMK A01 T01541088  RH  018%=      5-min Rain = 0
KPG1 130019Z 02015KT 15/M09 A3015 RMK A01 T01531089  RH  018%=      5-min Rain = 0
KPG1 130020Z 02016KT 15/M09 A3015 RMK A01 T01531088  RH  018%=      5-min Rain = 0
KPG1 130021Z 03016KT 15/M09 A3015 RMK A01 T01531087  RH  018%=      5-min Rain = 0
KPG1 130022Z 03013KT 15/M09 A3015 RMK A01 T01531086  RH  018%=      5-min Rain = 0
KPG1 130023Z 03017KT 15/M09 A3015 RMK A01 T01531085  RH  019%=      5-min Rain = 0
KPG1 130024Z 03017KT 15/M09 A3015 RMK A01 T01531085  RH  019%=      5-min Rain = 0
KPG1 130025Z 03016KT 15/M09 A3015 RMK A01 T01521085  RH  019%=      5-min Rain = 0
KPG1 130026Z 03012KT 15/M08 A3016 RMK A01 T01521084  RH  019%=      5-min Rain = 0
KPG1 130027Z 03012KT 15/M08 A3016 RMK A01 T01521083  RH  019%=      5-min Rain = 0
KPG1 130028Z 03015KT 15/M08 A3016 RMK A01 T01521084  RH  019%=      5-min Rain = 0
KPG1 130029Z 03015KT 15/M09 A3016 RMK A01 T01521085  RH  019%=      5-min Rain = 0
KPG1 130030Z 04015KT 15/M09 A3016 RMK A01 T01521085  RH  019%=      5-min Rain = 0
KPG1 130031Z 03016KT 15/M09 A3016 RMK A01 T01521086  RH  019%=      5-min Rain = 0
KPG1 130032Z 03015KT 15/M09 A3016 RMK A01 T01521087  RH  018%=      5-min Rain = 0
KPG1 130033Z 04013KT 15/M09 A3016 RMK A01 T01521087  RH  018%=      5-min Rain = 0
KPG1 130034Z 03013KT 15/M09 A3016 RMK A01 T01521087  RH  018%=      5-min Rain = 0
KPG1 130035Z 04012KT 15/M09 A3016 RMK A01 T01521087  RH  018%=      5-min Rain = 0
KPG1 130036Z 03013KT 15/M09 A3016 RMK A01 T01521086  RH  019%=      5-min Rain = 0
KPG1 130037Z 03013KT 15/M09 A3016 RMK A01 T01521085  RH  019%=      5-min Rain = 0
KPG1 130038Z 03015KT 15/M08 A3016 RMK A01 T01521084  RH  019%=      5-min Rain = 0
KPG1 130039Z 03015KT 15/M08 A3016 RMK A01 T01521084  RH  019%=      5-min Rain = 0
KPG1 130040Z 03016KT 15/M08 A3016 RMK A01 T01511084  RH  019%=      5-min Rain = 0
KPG1 130041Z 03015KT 15/M08 A3016 RMK A01 T01511084  RH  019%=      5-min Rain = 0
KPG1 130042Z 03014KT 15/M08 A3016 RMK A01 T01511084  RH  019%=      5-min Rain = 0
KPG1 130043Z 04012KT 15/M08 A3016 RMK A01 T01521083  RH  019%=      5-min Rain = 0
KPG1 130044Z 03014KT 15/M08 A3016 RMK A01 T01511083  RH  019%=      5-min Rain = 0
KPG1 130045Z 03013KT 15/M08 A3016 RMK A01 T01511083  RH  019%=      5-min Rain = 0
KPG1 130046Z 03013KT 15/M08 A3016 RMK A01 T01511083  RH  019%=      5-min Rain = 0
KPG1 130047Z 03013KT 15/M08 A3016 RMK A01 T01511082  RH  019%=      5-min Rain = 0
KPG1 130048Z 03013KT 15/M08 A3016 RMK A01 T01511082  RH  019%=      5-min Rain = 0
KPG1 130049Z 03016KT 15/M08 A3016 RMK A01 T01511082  RH  019%=      5-min Rain = 0
KPG1 130050Z 03016KT 15/M08 A3016 RMK A01 T01501081  RH  019%=      5-min Rain = 0
KPG1 130051Z 03016KT 15/M08 A3016 RMK A01 T01501081  RH  020%=      5-min Rain = 0
KPG1 130052Z 04016G21KT 15/M08 A3016 RMK A01 T01501080  RH  020%=      5-min Rain = 0
KPG1 130053Z 04016KT 15/M08 A3016 RMK A01 T01501080  RH  020%=      5-min Rain = 0
KPG1 130054Z 04015KT 15/M08 A3016 RMK A01 T01491080  RH  020%=      5-min Rain = 0
KPG1 130055Z 03015KT 15/M08 A3016 RMK A01 T01491080  RH  020%=      5-min Rain = 0
KPG1 130056Z 03016KT 15/M08 A3016 RMK A01 T01491080  RH  020%=      5-min Rain = 0
KPG1 130057Z 04016KT 15/M08 A3016 RMK A01 T01491080  RH  020%=      5-min Rain = 0
KPG1 130058Z 03017KT 15/M08 A3016 RMK A01 T01491080  RH  020%=      5-min Rain = 0
KPG1 130059Z 03017KT 15/M08 A3016 RMK A01 T01491080  RH  020%=      5-min Rain = 0
KPG1 130100Z 03019KT 15/M08 A3016 RMK A01 T01491080  RH  020%=      5-min Rain = 0
KPG1 130101Z 04016KT 15/M08 A3016 RMK A01 T01481080  RH  020%=      5-min Rain = 0
KPG1 130102Z 04017KT 15/M08 A3017 RMK A01 T01481080  RH  020%=      5-min Rain = 0
KPG1 130103Z 03018KT 15/M08 A3017 RMK A01 T01481080  RH  020%=      5-min Rain = 0
KPG1 130104Z 03018KT 15/M08 A3017 RMK A01 T01481080  RH  020%=      5-min Rain = 0
KPG1 130105Z 03017KT 15/M08 A3017 RMK A01 T01481080  RH  020%=      5-min Rain = 0
KPG1 130106Z 03018KT 15/M08 A3017 RMK A01 T01481080  RH  020%=      5-min Rain = 0
KPG1 130107Z 04019KT 15/M08 A3017 RMK A01 T01481081  RH  020%=      5-min Rain = 0
KPG1 130108Z 03017KT 15/M08 A3017 RMK A01 T01481081  RH  020%=      5-min Rain = 0
KPG1 130109Z 04018KT 15/M08 A3017 RMK A01 T01481081  RH  020%=      5-min Rain = 0
KPG1 130110Z 03014KT 15/M08 A3017 RMK A01 T01481081  RH  020%=      5-min Rain = 0
KPG1 130111Z 04017KT 15/M08 A3017 RMK A01 T01471081  RH  020%=      5-min Rain = 0
KPG1 130112Z 04014KT 15/M08 A3017 RMK A01 T01471080  RH  020%=      5-min Rain = 0
KPG1 130113Z 03013KT 15/M08 A3017 RMK A01 T01471081  RH  020%=      5-min Rain = 0
KPG1 130114Z 03017KT 15/M08 A3017 RMK A01 T01471081  RH  020%=      5-min Rain = 0
KPG1 130115Z 03014KT 15/M08 A3017 RMK A01 T01471080  RH  020%=      5-min Rain = 0
KPG1 130116Z 03014KT 15/M08 A3017 RMK A01 T01461081  RH  020%=      5-min Rain = 0
KPG1 130117Z 04016KT 15/M08 A3017 RMK A01 T01461081  RH  020%=      5-min Rain = 0
KPG1 130118Z 04016KT 15/M08 A3017 RMK A01 T01461081  RH  020%=      5-min Rain = 0
KPG1 130119Z 03016KT 15/M08 A3017 RMK A01 T01461081  RH  020%=      5-min Rain = 0
KPG1 130120Z 04016KT 15/M08 A3017 RMK A01 T01461080  RH  020%=      5-min Rain = 0
KPG1 130121Z 04017KT 15/M08 A3017 RMK A01 T01461081  RH  020%=      5-min Rain = 0
KPG1 130122Z 03013KT 15/M08 A3017 RMK A01 T01461081  RH  020%=      5-min Rain = 0
KPG1 130123Z 04014KT 15/M08 A3017 RMK A01 T01451081  RH  020%=      5-min Rain = 0
KPG1 130124Z 04015KT 15/M08 A3017 RMK A01 T01451081  RH  020%=      5-min Rain = 0
KPG1 130125Z 04016KT 15/M08 A3017 RMK A01 T01451081  RH  020%=      5-min Rain = 0
KPG1 130126Z 04014KT 15/M08 A3017 RMK A01 T01451081  RH  020%=      5-min Rain = 0
KPG1 130127Z 04013KT 15/M08 A3017 RMK A01 T01451081  RH  020%=      5-min Rain = 0
KPG1 130128Z 04014G19KT 15/M08 A3016 RMK A01 T01451081  RH  020%=      5-min Rain = 0
KPG1 130129Z 04014KT 15/M08 A3016 RMK A01 T01451081  RH  020%=      5-min Rain = 0
KPG1 130130Z 04014KT 15/M08 A3016 RMK A01 T01451081  RH  020%=      5-min Rain = 0
KPG1 130131Z 03015KT 14/M08 A3016 RMK A01 T01441081  RH  020%=      5-min Rain = 0
KPG1 130132Z 03014KT 14/M08 A3016 RMK A01 T01441081  RH  020%=      5-min Rain = 0
KPG1 130133Z 03014KT 14/M08 A3016 RMK A01 T01441082  RH  020%=      5-min Rain = 0
KPG1 130134Z 04015KT 14/M08 A3016 RMK A01 T01441082  RH  020%=      5-min Rain = 0
KPG1 130135Z 04013KT 14/M08 A3016 RMK A01 T01441082  RH  020%=      5-min Rain = 0
KPG1 130136Z 03013KT 14/M08 A3016 RMK A01 T01441082  RH  020%=      5-min Rain = 0
KPG1 130137Z 03015KT 14/M08 A3016 RMK A01 T01431082  RH  020%=      5-min Rain = 0
KPG1 130138Z 03015KT 14/M08 A3016 RMK A01 T01431082  RH  020%=      5-min Rain = 0
KPG1 130139Z 03015KT 14/M08 A3017 RMK A01 T01431082  RH  020%=      5-min Rain = 0
KPG1 130140Z 03014KT 14/M08 A3017 RMK A01 T01431082  RH  020%=      5-min Rain = 0
KPG1 130141Z 03015KT 14/M08 A3017 RMK A01 T01431082  RH  020%=      5-min Rain = 0
KPG1 130142Z 03015KT 14/M08 A3017 RMK A01 T01431082  RH  020%=      5-min Rain = 0
KPG1 130143Z 03014KT 14/M08 A3017 RMK A01 T01431082  RH  020%=      5-min Rain = 0
KPG1 130144Z 04016KT 14/M08 A3017 RMK A01 T01431082  RH  020%=      5-min Rain = 0
KPG1 130145Z 03014KT 14/M08 A3017 RMK A01 T01421083  RH  020%=      5-min Rain = 0
KPG1 130146Z 03016KT 14/M08 A3017 RMK A01 T01421082  RH  020%=      5-min Rain = 0
KPG1 130147Z 03015KT 14/M08 A3017 RMK A01 T01421082  RH  020%=      5-min Rain = 0
KPG1 130148Z 04015KT 14/M08 A3017 RMK A01 T01421083  RH  020%=      5-min Rain = 0
KPG1 130149Z 03016KT 14/M08 A3017 RMK A01 T01421082  RH  020%=      5-min Rain = 0
KPG1 130150Z 04014KT 14/M08 A3017 RMK A01 T01421082  RH  020%=      5-min Rain = 0
KPG1 130151Z 03015KT 14/M08 A3017 RMK A01 T01421083  RH  020%=      5-min Rain = 0
KPG1 130152Z 03015KT 14/M08 A3017 RMK A01 T01421083  RH  020%=      5-min Rain = 0
KPG1 130153Z 03014KT 14/M08 A3018 RMK A01 T01421082  RH  020%=      5-min Rain = 0
KPG1 130154Z 03014KT 14/M08 A3018 RMK A01 T01411083  RH  020%=      5-min Rain = 0
KPG1 130155Z 03013KT 14/M08 A3018 RMK A01 T01411083  RH  020%=      5-min Rain = 0
KPG1 130156Z 03013KT 14/M08 A3018 RMK A01 T01411082  RH  020%=      5-min Rain = 0
KPG1 130157Z 03013KT 14/M08 A3018 RMK A01 T01411082  RH  020%=      5-min Rain = 0
KPG1 130158Z 03014KT 14/M08 A3018 RMK A01 T01411083  RH  020%=      5-min Rain = 0
KPG1 130159Z 03014KT 14/M08 A3018 RMK A01 T01411082  RH  020%=      5-min Rain = 0
KPG1 130200Z 03012KT 14/M08 A3018 RMK A01 T01411082  RH  020%=      5-min Rain = 0
KPG1 130201Z 03014KT 14/M08 A3018 RMK A01 T01411082  RH  021%=      5-min Rain = 0
KPG1 130202Z 03012KT 14/M08 A3018 RMK A01 T01401083  RH  021%=      5-min Rain = 0
KPG1 130203Z 03014KT 14/M08 A3018 RMK A01 T01401083  RH  021%=      5-min Rain = 0
KPG1 130204Z 03011KT 14/M08 A3018 RMK A01 T01401083  RH  021%=      5-min Rain = 0
KPG1 130205Z 03012G17KT 14/M08 A3018 RMK A01 T01401083  RH  021%=      5-min Rain = 0
KPG1 130206Z 04015KT 14/M08 A3018 RMK A01 T01401083  RH  021%=      5-min Rain = 0
KPG1 130207Z 03012KT 14/M08 A3018 RMK A01 T01401083  RH  021%=      5-min Rain = 0
KPG1 130208Z 04014KT 14/M08 A3018 RMK A01 T01401083  RH  021%=      5-min Rain = 0
KPG1 130209Z 03013KT 14/M08 A3018 RMK A01 T01401083  RH  021%=      5-min Rain = 0
KPG1 130210Z 03014KT 14/M08 A3018 RMK A01 T01401083  RH  021%=      5-min Rain = 0
KPG1 130211Z 03015KT 14/M08 A3018 RMK A01 T01401083  RH  021%=      5-min Rain = 0
KPG1 130212Z 03015KT 14/M08 A3018 RMK A01 T01401083  RH  021%=      5-min Rain = 0
KPG1 130213Z 03014KT 14/M08 A3018 RMK A01 T01401083  RH  021%=      5-min Rain = 0
KPG1 130214Z 03014KT 14/M08 A3018 RMK A01 T01401083  RH  021%=      5-min Rain = 0
KPG1 130215Z 03012G17KT 14/M08 A3018 RMK A01 T01401083  RH  021%=      5-min Rain = 0
KPG1 130216Z 03016KT 14/M08 A3018 RMK A01 T01401083  RH  021%=      5-min Rain = 0
KPG1 130217Z 03013KT 14/M08 A3018 RMK A01 T01391083  RH  021%=      5-min Rain = 0
KPG1 130218Z 04014KT 14/M08 A3018 RMK A01 T01391083  RH  021%=      5-min Rain = 0
KPG1 130219Z 04012KT 14/M08 A3018 RMK A01 T01391084  RH  020%=      5-min Rain = 0
KPG1 130220Z 04014KT 14/M08 A3018 RMK A01 T01391084  RH  020%=      5-min Rain = 0
KPG1 130221Z 03013KT 14/M08 A3018 RMK A01 T01391084  RH  021%=      5-min Rain = 0
KPG1 130222Z 04014KT 14/M08 A3018 RMK A01 T01391084  RH  021%=      5-min Rain = 0
KPG1 130223Z 04013KT 14/M08 A3018 RMK A01 T01391084  RH  021%=      5-min Rain = 0
KPG1 130224Z 04013KT 14/M08 A3018 RMK A01 T01391083  RH  021%=      5-min Rain = 0
KPG1 130225Z 03014KT 14/M08 A3018 RMK A01 T01381084  RH  021%=      5-min Rain = 0
KPG1 130226Z 03014KT 14/M08 A3018 RMK A01 T01381084  RH  021%=      5-min Rain = 0
KPG1 130227Z 04014KT 14/M08 A3018 RMK A01 T01381084  RH  021%=      5-min Rain = 0
KPG1 130228Z 04015KT 14/M08 A3018 RMK A01 T01381084  RH  021%=      5-min Rain = 0
KPG1 130229Z 03017KT 14/M08 A3018 RMK A01 T01381084  RH  021%=      5-min Rain = 0
KPG1 130230Z 04016KT 14/M08 A3018 RMK A01 T01381084  RH  021%=      5-min Rain = 0
KPG1 130231Z 04015KT 14/M08 A3018 RMK A01 T01381084  RH  021%=      5-min Rain = 0
KPG1 130232Z 04015KT 14/M08 A3018 RMK A01 T01371084  RH  021%=      5-min Rain = 0
KPG1 130233Z 04015KT 14/M08 A3018 RMK A01 T01371084  RH  021%=      5-min Rain = 0
KPG1 130234Z 03015KT 14/M08 A3018 RMK A01 T01381084  RH  021%=      5-min Rain = 0
KPG1 130235Z 03014KT 14/M08 A3018 RMK A01 T01371084  RH  021%=      5-min Rain = 0
KPG1 130236Z 04015KT 14/M09 A3017 RMK A01 T01371085  RH  021%=      5-min Rain = 0
KPG1 130237Z 03015KT 14/M09 A3017 RMK A01 T01361085  RH  021%=      5-min Rain = 0
KPG1 130238Z 04016KT 14/M09 A3017 RMK A01 T01361085  RH  021%=      5-min Rain = 0
KPG1 130239Z 03015KT 14/M09 A3017 RMK A01 T01361085  RH  021%=      5-min Rain = 0
KPG1 130240Z 04015G20KT 14/M08 A3017 RMK A01 T01361084  RH  021%=      5-min Rain = 0
KPG1 130241Z 03016KT 14/M09 A3018 RMK A01 T01361085  RH  021%=      5-min Rain = 0
KPG1 130242Z 03015KT 14/M09 A3018 RMK A01 T01361085  RH  021%=      5-min Rain = 0
KPG1 130243Z 03015KT 14/M08 A3018 RMK A01 T01361084  RH  021%=      5-min Rain = 0
KPG1 130244Z 04016KT 14/M09 A3018 RMK A01 T01361085  RH  021%=      5-min Rain = 0
KPG1 130245Z 03013KT 14/M09 A3018 RMK A01 T01361085  RH  021%=      5-min Rain = 0
KPG1 130246Z 04014G19KT 14/M09 A3018 RMK A01 T01361085  RH  021%=      5-min Rain = 0
KPG1 130247Z 03013KT 14/M09 A3018 RMK A01 T01351085  RH  021%=      5-min Rain = 0
KPG1 130248Z 03012KT 14/M09 A3018 RMK A01 T01351085  RH  021%=      5-min Rain = 0
KPG1 130249Z 03013KT 14/M09 A3018 RMK A01 T01351085  RH  021%=      5-min Rain = 0
KPG1 130250Z 03012KT 13/M09 A3018 RMK A01 T01341085  RH  021%=      5-min Rain = 0
KPG1 130251Z 03012KT 13/M09 A3018 RMK A01 T01331086  RH  021%=      5-min Rain = 0
KPG1 130252Z 03012KT 13/M09 A3018 RMK A01 T01331086  RH  021%=      5-min Rain = 0
KPG1 130253Z 02010KT 13/M09 A3018 RMK A01 T01331085  RH  021%=      5-min Rain = 0
KPG1 130254Z 03010KT 13/M09 A3019 RMK A01 T01321086  RH  021%=      5-min Rain = 0
KPG1 130255Z 02011KT 13/M09 A3019 RMK A01 T01321086  RH  021%=      5-min Rain = 0
KPG1 130256Z 02012KT 13/M09 A3019 RMK A01 T01321086  RH  021%=      5-min Rain = 0
KPG1 130257Z 02013KT 13/M09 A3019 RMK A01 T01321085  RH  021%=      5-min Rain = 0
KPG1 130258Z 02012KT 13/M09 A3019 RMK A01 T01321085  RH  021%=      5-min Rain = 0
KPG1 130259Z 02013KT 13/M09 A3019 RMK A01 T01321086  RH  021%=      5-min Rain = 0
KPG1 130300Z 02012KT 13/M09 A3019 RMK A01 T01321086  RH  021%=      5-min Rain = 0
KPG1 130301Z 02012KT 13/M09 A3019 RMK A01 T01321086  RH  021%=      5-min Rain = 0
KPG1 130302Z 02013KT 13/M09 A3018 RMK A01 T01321086  RH  021%=      5-min Rain = 0
KPG1 130303Z 02013KT 13/M09 A3018 RMK A01 T01311086  RH  021%=      5-min Rain = 0
KPG1 130304Z 02013KT 13/M09 A3018 RMK A01 T01311086  RH  021%=      5-min Rain = 0
KPG1 130305Z 02012KT 13/M09 A3018 RMK A01 T01321086  RH  021%=      5-min Rain = 0
KPG1 130306Z 02011KT 13/M09 A3018 RMK A01 T01311086  RH  021%=      5-min Rain = 0
KPG1 130307Z 02010KT 13/M09 A3018 RMK A01 T01311086  RH  021%=      5-min Rain = 0
KPG1 130308Z 02012KT 13/M09 A3018 RMK A01 T01301087  RH  021%=      5-min Rain = 0
KPG1 130309Z 02013KT 13/M09 A3018 RMK A01 T01301086  RH  021%=      5-min Rain = 0
KPG1 130310Z 02011KT 13/M09 A3018 RMK A01 T01301086  RH  021%=      5-min Rain = 0
KPG1 130311Z 02012KT 13/M09 A3018 RMK A01 T01301086  RH  021%=      5-min Rain = 0
KPG1 130312Z 02013KT 13/M09 A3018 RMK A01 T01301086  RH  021%=      5-min Rain = 0
KPG1 130313Z 01011KT 13/M09 A3018 RMK A01 T01301086  RH  021%=      5-min Rain = 0
KPG1 130314Z 01011KT 13/M09 A3018 RMK A01 T01301086  RH  021%=      5-min Rain = 0
KPG1 130315Z 02011KT 13/M09 A3018 RMK A01 T01301086  RH  021%=      5-min Rain = 0
KPG1 130316Z 01013KT 13/M09 A3018 RMK A01 T01301086  RH  021%=      5-min Rain = 0
KPG1 130317Z 02011KT 13/M09 A3018 RMK A01 T01301086  RH  021%=      5-min Rain = 0
KPG1 130318Z 02013KT 13/M09 A3019 RMK A01 T01301086  RH  021%=      5-min Rain = 0
KPG1 130319Z 01013KT 13/M09 A3019 RMK A01 T01301086  RH  021%=      5-min Rain = 0
KPG1 130320Z 01014KT 13/M09 A3019 RMK A01 T01301086  RH  022%=      5-min Rain = 0
KPG1 130321Z 02013KT 13/M09 A3019 RMK A01 T01301085  RH  022%=      5-min Rain = 0
KPG1 130322Z 01013KT 13/M09 A3019 RMK A01 T01301085  RH  022%=      5-min Rain = 0
KPG1 130323Z 01014KT 13/M09 A3019 RMK A01 T01301085  RH  022%=      5-min Rain = 0
KPG1 130324Z 02013KT 13/M09 A3019 RMK A01 T01301085  RH  022%=      5-min Rain = 0
KPG1 130325Z 01014KT 13/M09 A3019 RMK A01 T01301085  RH  022%=      5-min Rain = 0
KPG1 130326Z 01015KT 13/M09 A3019 RMK A01 T01301085  RH  022%=      5-min Rain = 0
KPG1 130327Z 02014KT 13/M08 A3019 RMK A01 T01301084  RH  022%=      5-min Rain = 0
KPG1 130328Z 02014KT 13/M08 A3019 RMK A01 T01291084  RH  022%=      5-min Rain = 0
KPG1 130329Z 01013KT 13/M08 A3019 RMK A01 T01291084  RH  022%=      5-min Rain = 0
KPG1 130330Z 02011KT 13/M08 A3019 RMK A01 T01291084  RH  022%=      5-min Rain = 0
KPG1 130331Z 01012KT 13/M08 A302 RMK A01 T01291084  RH  022%=      5-min Rain = 0
KPG1 130332Z 02011KT 13/M08 A302 RMK A01 T01281084  RH  022%=      5-min Rain = 0
KPG1 130333Z 02014KT 13/M08 A3019 RMK A01 T01291083  RH  022%=      5-min Rain = 0
KPG1 130334Z 03014KT 13/M08 A3019 RMK A01 T01281083  RH  022%=      5-min Rain = 0
KPG1 130335Z 02012KT 13/M08 A3019 RMK A01 T01281083  RH  022%=      5-min Rain = 0
KPG1 130336Z 01012KT 13/M08 A3019 RMK A01 T01281083  RH  022%=      5-min Rain = 0
KPG1 130337Z 02013KT 13/M08 A3019 RMK A01 T01291083  RH  022%=      5-min Rain = 0
KPG1 130338Z 02012KT 13/M08 A3019 RMK A01 T01281083  RH  022%=      5-min Rain = 0
KPG1 130339Z 02011KT 13/M08 A3019 RMK A01 T01281082  RH  022%=      5-min Rain = 0
KPG1 130340Z 01012KT 13/M08 A3019 RMK A01 T01281083  RH  022%=      5-min Rain = 0
KPG1 130341Z 01013KT 13/M08 A3019 RMK A01 T01271083  RH  022%=      5-min Rain = 0
KPG1 130342Z 01012KT 13/M08 A3019 RMK A01 T01271082  RH  022%=      5-min Rain = 0
KPG1 130343Z 00014G19KT 13/M08 A3019 RMK A01 T01271082  RH  022%=      5-min Rain = 0
KPG1 130344Z 01014KT 13/M08 A3019 RMK A01 T01271082  RH  022%=      5-min Rain = 0
KPG1 130345Z 01014KT 13/M08 A3019 RMK A01 T01271082  RH  022%=      5-min Rain = 0
KPG1 130346Z 00013KT 13/M08 A302 RMK A01 T01271082  RH  023%=      5-min Rain = 0
KPG1 130347Z 00015KT 13/M08 A302 RMK A01 T01261082  RH  023%=      5-min Rain = 0
KPG1 130348Z 01014KT 13/M08 A302 RMK A01 T01271082  RH  023%=      5-min Rain = 0
KPG1 130349Z 00014KT 13/M08 A302 RMK A01 T01271082  RH  023%=      5-min Rain = 0
KPG1 130350Z 00013KT 13/M08 A302 RMK A01 T01271082  RH  023%=      5-min Rain = 0
KPG1 130351Z 00014KT 13/M08 A302 RMK A01 T01271082  RH  023%=      5-min Rain = 0
KPG1 130352Z 00013KT 13/M08 A302 RMK A01 T01261082  RH  023%=      5-min Rain = 0
KPG1 130353Z 00015KT 13/M08 A3019 RMK A01 T01261082  RH  023%=      5-min Rain = 0
KPG1 130354Z 36011KT 13/M08 A3019 RMK A01 T01261081  RH  023%=      5-min Rain = 0
KPG1 130355Z 00014KT 13/M08 A3019 RMK A01 T01261082  RH  023%=      5-min Rain = 0
KPG1 130356Z 36014KT 13/M08 A3019 RMK A01 T01261081  RH  023%=      5-min Rain = 0
KPG1 130357Z 00015KT 13/M08 A3019 RMK A01 T01261081  RH  023%=      5-min Rain = 0
KPG1 130358Z 01015KT 13/M08 A3019 RMK A01 T01261081  RH  023%=      5-min Rain = 0
KPG1 130359Z 36014KT 13/M08 A3019 RMK A01 T01251081  RH  023%=      5-min Rain = 0
KPG1 130400Z 01015KT 13/M08 A3019 RMK A01 T01251081  RH  023%=      5-min Rain = 0
KPG1 130401Z 00016KT 13/M08 A3019 RMK A01 T01251081  RH  023%=      5-min Rain = 0
KPG1 130402Z 00013KT 13/M08 A3019 RMK A01 T01251081  RH  023%=      5-min Rain = 0
KPG1 130403Z 00014KT 13/M08 A3019 RMK A01 T01251081  RH  023%=      5-min Rain = 0
KPG1 130404Z 00015KT 13/M08 A3019 RMK A01 T01251081  RH  023%=      5-min Rain = 0
KPG1 130405Z 00014KT 13/M08 A3019 RMK A01 T01251081  RH  023%=      5-min Rain = 0
KPG1 130406Z 00014KT 12/M08 A3019 RMK A01 T01241081  RH  023%=      5-min Rain = 0
KPG1 130407Z 00015KT 12/M08 A3019 RMK A01 T01241081  RH  023%=      5-min Rain = 0
KPG1 130408Z 36014KT 12/M08 A3019 RMK A01 T01241081  RH  023%=      5-min Rain = 0
KPG1 130409Z 01015KT 12/M08 A3019 RMK A01 T01241081  RH  023%=      5-min Rain = 0
KPG1 130410Z 00016KT 12/M08 A3019 RMK A01 T01241081  RH  023%=      5-min Rain = 0
KPG1 130411Z 01015KT 12/M08 A3019 RMK A01 T01241081  RH  023%=      5-min Rain = 0
KPG1 130412Z 00013KT 12/M08 A3019 RMK A01 T01241081  RH  023%=      5-min Rain = 0
KPG1 130413Z 00016KT 12/M08 A3019 RMK A01 T01241082  RH  023%=      5-min Rain = 0
KPG1 130414Z 00015KT 12/M08 A3019 RMK A01 T01241081  RH  023%=      5-min Rain = 0
KPG1 130415Z 36013KT 12/M08 A3019 RMK A01 T01241081  RH  023%=      5-min Rain = 0
KPG1 130416Z 00013KT 12/M08 A3019 RMK A01 T01231082  RH  023%=      5-min Rain = 0
KPG1 130417Z 01014KT 12/M08 A3019 RMK A01 T01231082  RH  023%=      5-min Rain = 0
KPG1 130418Z 00015KT 12/M08 A3019 RMK A01 T01231081  RH  023%=      5-min Rain = 0
KPG1 130419Z 36013KT 12/M08 A3019 RMK A01 T01231082  RH  023%=      5-min Rain = 0
KPG1 130420Z 00011KT 12/M08 A3019 RMK A01 T01231082  RH  023%=      5-min Rain = 0
KPG1 130421Z 00014KT 12/M08 A3019 RMK A01 T01231082  RH  023%=      5-min Rain = 0
KPG1 130422Z 36013KT 12/M08 A3019 RMK A01 T01231081  RH  023%=      5-min Rain = 0
KPG1 130423Z 01014KT 12/M08 A3019 RMK A01 T01231081  RH  023%=      5-min Rain = 0
KPG1 130424Z 00014KT 12/M08 A3019 RMK A01 T01231081  RH  023%=      5-min Rain = 0
KPG1 130425Z 01013KT 12/M08 A3019 RMK A01 T01221082  RH  023%=      5-min Rain = 0
KPG1 130426Z 01013KT 12/M08 A3019 RMK A01 T01231081  RH  023%=      5-min Rain = 0
KPG1 130427Z 01013KT 12/M08 A3019 RMK A01 T01231081  RH  023%=      5-min Rain = 0
KPG1 130428Z 00014KT 12/M08 A3019 RMK A01 T01221081  RH  023%=      5-min Rain = 0
KPG1 130429Z 01013G18KT 12/M08 A3019 RMK A01 T01221081  RH  023%=      5-min Rain = 0
KPG1 130430Z 00013KT 12/M08 A3019 RMK A01 T01221081  RH  023%=      5-min Rain = 0
KPG1 130431Z 01013KT 12/M08 A3019 RMK A01 T01211081  RH  024%=      5-min Rain = 0
KPG1 130432Z 01014KT 12/M08 A3019 RMK A01 T01211081  RH  024%=      5-min Rain = 0
KPG1 130433Z 01013KT 12/M08 A3019 RMK A01 T01211081  RH  024%=      5-min Rain = 0
KPG1 130434Z 01014KT 12/M08 A3019 RMK A01 T01211081  RH  024%=      5-min Rain = 0
KPG1 130435Z 00013KT 12/M08 A3019 RMK A01 T01211081  RH  024%=      5-min Rain = 0
KPG1 130436Z 00015KT 12/M08 A3019 RMK A01 T01211081  RH  024%=      5-min Rain = 0
KPG1 130437Z 01014KT 12/M08 A3019 RMK A01 T01211080  RH  024%=      5-min Rain = 0
KPG1 130438Z 01014KT 12/M08 A3019 RMK A01 T01211080  RH  024%=      5-min Rain = 0
KPG1 130439Z 01012KT 12/M08 A3019 RMK A01 T01211080  RH  024%=      5-min Rain = 0
KPG1 130440Z 01014KT 12/M08 A3019 RMK A01 T01201080  RH  024%=      5-min Rain = 0
KPG1 130441Z 01014KT 12/M08 A3019 RMK A01 T01201080  RH  024%=      5-min Rain = 0
KPG1 130442Z 01014KT 12/M08 A3019 RMK A01 T01201080  RH  024%=      5-min Rain = 0
KPG1 130443Z 00014KT 12/M08 A3019 RMK A01 T01201080  RH  024%=      5-min Rain = 0
KPG1 130444Z 01013KT 12/M08 A3019 RMK A01 T01201080  RH  024%=      5-min Rain = 0
KPG1 130445Z 00014KT 12/M08 A3019 RMK A01 T01201080  RH  024%=      5-min Rain = 0
KPG1 130446Z 00012KT 12/M08 A3019 RMK A01 T01201080  RH  024%=      5-min Rain = 0
KPG1 130447Z 00012KT 12/M08 A3019 RMK A01 T01201080  RH  024%=      5-min Rain = 0
KPG1 130448Z 00013KT 12/M08 A3019 RMK A01 T01201080  RH  024%=      5-min Rain = 0
KPG1 130449Z 00013KT 12/M08 A3019 RMK A01 T01201080  RH  024%=      5-min Rain = 0
KPG1 130450Z 01013KT 12/M08 A3019 RMK A01 T01201079  RH  024%=      5-min Rain = 0
KPG1 130451Z 01013KT 12/M08 A3019 RMK A01 T01201080  RH  024%=      5-min Rain = 0
KPG1 130452Z 00013KT 12/M08 A3019 RMK A01 T01201080  RH  024%=      5-min Rain = 0
KPG1 130453Z 01013KT 12/M08 A3019 RMK A01 T01201080  RH  024%=      5-min Rain = 0
KPG1 130454Z 01014KT 12/M08 A3019 RMK A01 T01201079  RH  024%=      5-min Rain = 0
KPG1 130455Z 01013KT 12/M08 A3019 RMK A01 T01201079  RH  024%=      5-min Rain = 0
KPG1 130456Z 01015KT 12/M08 A3018 RMK A01 T01201079  RH  024%=      5-min Rain = 0
KPG1 130457Z 01014KT 12/M08 A3018 RMK A01 T01201079  RH  024%=      5-min Rain = 0
KPG1 130458Z 01015KT 12/M08 A3018 RMK A01 T01201079  RH  024%=      5-min Rain = 0
KPG1 130459Z 01014KT 12/M08 A3019 RMK A01 T01201078  RH  024%=      5-min Rain = 0

Page generated in 0.141 seconds.